<?xml version="1.0" encoding="UTF-8" standalone="no" ?>
<gpx xmlns="http://www.topografix.com/GPX/1/1" xmlns:xsi="http://www.w3.org/2001/XMLSchema-instance" xsi:schemaLocation="http://www.topografix.com/GPX/1/1 http://www.topografix.com/GPX/1/1/gpx.xsd" version="1.1" creator="VisuGPX - https://www.visugpx.com">
  <metadata>
    <name>Aspremont à Nice par le GR5</name>
    <desc><![CDATA[Etape de Aspremont à Nice]]></desc>
  </metadata>
  <wpt lat="43.78451" lon="7.2434">
    <ele>508</ele>
  </wpt>
  <trk>
    <name><![CDATA[Aspremont à Nice par le GR5_1]]></name>
    <trkseg>
      <trkpt lat="43.78451" lon="7.2434">
        <ele>508</ele>
        <time>2013-09-02T06:32:56Z</time>
      </trkpt>
      <trkpt lat="43.78449" lon="7.24325">
        <ele>521</ele>
        <time>2013-09-02T06:32:58Z</time>
      </trkpt>
      <trkpt lat="43.78449" lon="7.24339">
        <ele>509</ele>
        <time>2013-09-02T06:33:09Z</time>
      </trkpt>
      <trkpt lat="43.78458" lon="7.24335">
        <ele>524</ele>
        <time>2013-09-02T06:37:47Z</time>
      </trkpt>
      <trkpt lat="43.78462" lon="7.24347">
        <ele>515</ele>
        <time>2013-09-02T06:38:02Z</time>
      </trkpt>
      <trkpt lat="43.78461" lon="7.24359">
        <ele>504</ele>
        <time>2013-09-02T06:38:13Z</time>
      </trkpt>
      <trkpt lat="43.78458" lon="7.24347">
        <ele>511</ele>
        <time>2013-09-02T06:38:57Z</time>
      </trkpt>
      <trkpt lat="43.78454" lon="7.24358">
        <ele>505</ele>
        <time>2013-09-02T06:39:06Z</time>
      </trkpt>
      <trkpt lat="43.78452" lon="7.2437">
        <ele>498</ele>
        <time>2013-09-02T06:39:12Z</time>
      </trkpt>
      <trkpt lat="43.78458" lon="7.2436">
        <ele>506</ele>
        <time>2013-09-02T06:39:51Z</time>
      </trkpt>
      <trkpt lat="43.78456" lon="7.24348">
        <ele>514</ele>
        <time>2013-09-02T06:40:10Z</time>
      </trkpt>
      <trkpt lat="43.7846" lon="7.24338">
        <ele>519</ele>
        <time>2013-09-02T06:40:14Z</time>
      </trkpt>
      <trkpt lat="43.78452" lon="7.24344">
        <ele>511</ele>
        <time>2013-09-02T06:40:25Z</time>
      </trkpt>
      <trkpt lat="43.78443" lon="7.24342">
        <ele>511</ele>
        <time>2013-09-02T06:40:34Z</time>
      </trkpt>
      <trkpt lat="43.78434" lon="7.24346">
        <ele>505</ele>
        <time>2013-09-02T06:40:40Z</time>
      </trkpt>
      <trkpt lat="43.78425" lon="7.24347">
        <ele>505</ele>
        <time>2013-09-02T06:40:48Z</time>
      </trkpt>
      <trkpt lat="43.78417" lon="7.24339">
        <ele>505</ele>
        <time>2013-09-02T06:40:58Z</time>
      </trkpt>
      <trkpt lat="43.7842" lon="7.24351">
        <ele>505</ele>
        <time>2013-09-02T06:41:29Z</time>
      </trkpt>
      <trkpt lat="43.78425" lon="7.2434">
        <ele>513</ele>
        <time>2013-09-02T06:42:20Z</time>
      </trkpt>
      <trkpt lat="43.78427" lon="7.24354">
        <ele>502</ele>
        <time>2013-09-02T06:42:36Z</time>
      </trkpt>
      <trkpt lat="43.78422" lon="7.24366">
        <ele>494</ele>
        <time>2013-09-02T06:43:01Z</time>
      </trkpt>
      <trkpt lat="43.78413" lon="7.24363">
        <ele>512</ele>
        <time>2013-09-02T06:43:12Z</time>
      </trkpt>
      <trkpt lat="43.78409" lon="7.24348">
        <ele>528</ele>
        <time>2013-09-02T06:43:15Z</time>
      </trkpt>
      <trkpt lat="43.78413" lon="7.24362">
        <ele>513</ele>
        <time>2013-09-02T06:43:23Z</time>
      </trkpt>
      <trkpt lat="43.78422" lon="7.24365">
        <ele>503</ele>
        <time>2013-09-02T06:43:44Z</time>
      </trkpt>
      <trkpt lat="43.78428" lon="7.24376">
        <ele>503</ele>
        <time>2013-09-02T06:44:06Z</time>
      </trkpt>
      <trkpt lat="43.78434" lon="7.24388">
        <ele>519</ele>
        <time>2013-09-02T06:44:16Z</time>
      </trkpt>
      <trkpt lat="43.78439" lon="7.24378">
        <ele>542</ele>
        <time>2013-09-02T06:44:25Z</time>
      </trkpt>
      <trkpt lat="43.78448" lon="7.24383">
        <ele>542</ele>
        <time>2013-09-02T06:44:33Z</time>
      </trkpt>
      <trkpt lat="43.78452" lon="7.24394">
        <ele>532</ele>
        <time>2013-09-02T06:44:43Z</time>
      </trkpt>
      <trkpt lat="43.78458" lon="7.24404">
        <ele>524</ele>
        <time>2013-09-02T06:44:50Z</time>
      </trkpt>
      <trkpt lat="43.78465" lon="7.24414">
        <ele>518</ele>
        <time>2013-09-02T06:44:56Z</time>
      </trkpt>
      <trkpt lat="43.7847" lon="7.24428">
        <ele>518</ele>
        <time>2013-09-02T06:45:02Z</time>
      </trkpt>
      <trkpt lat="43.78473" lon="7.24442">
        <ele>504</ele>
        <time>2013-09-02T06:45:10Z</time>
      </trkpt>
      <trkpt lat="43.78476" lon="7.24454">
        <ele>495</ele>
        <time>2013-09-02T06:45:15Z</time>
      </trkpt>
      <trkpt lat="43.78479" lon="7.24468">
        <ele>495</ele>
        <time>2013-09-02T06:45:24Z</time>
      </trkpt>
      <trkpt lat="43.78475" lon="7.2448">
        <ele>495</ele>
        <time>2013-09-02T06:45:34Z</time>
      </trkpt>
      <trkpt lat="43.78469" lon="7.24489">
        <ele>501</ele>
        <time>2013-09-02T06:45:51Z</time>
      </trkpt>
      <trkpt lat="43.78459" lon="7.24492">
        <ele>501</ele>
        <time>2013-09-02T06:46:05Z</time>
      </trkpt>
      <trkpt lat="43.78452" lon="7.24499">
        <ele>501</ele>
        <time>2013-09-02T06:46:14Z</time>
      </trkpt>
      <trkpt lat="43.78447" lon="7.24509">
        <ele>501</ele>
        <time>2013-09-02T06:46:23Z</time>
      </trkpt>
      <trkpt lat="43.7844" lon="7.24519">
        <ele>492</ele>
        <time>2013-09-02T06:46:34Z</time>
      </trkpt>
      <trkpt lat="43.78433" lon="7.24528">
        <ele>492</ele>
        <time>2013-09-02T06:46:42Z</time>
      </trkpt>
      <trkpt lat="43.7843" lon="7.24541">
        <ele>492</ele>
        <time>2013-09-02T06:46:50Z</time>
      </trkpt>
      <trkpt lat="43.78421" lon="7.24545">
        <ele>492</ele>
        <time>2013-09-02T06:47:02Z</time>
      </trkpt>
      <trkpt lat="43.78416" lon="7.24556">
        <ele>486</ele>
        <time>2013-09-02T06:47:07Z</time>
      </trkpt>
      <trkpt lat="43.78412" lon="7.24567">
        <ele>486</ele>
        <time>2013-09-02T06:47:17Z</time>
      </trkpt>
      <trkpt lat="43.78404" lon="7.24575">
        <ele>486</ele>
        <time>2013-09-02T06:47:28Z</time>
      </trkpt>
      <trkpt lat="43.784" lon="7.24586">
        <ele>492</ele>
        <time>2013-09-02T06:47:37Z</time>
      </trkpt>
      <trkpt lat="43.7839" lon="7.24589">
        <ele>492</ele>
        <time>2013-09-02T06:47:44Z</time>
      </trkpt>
      <trkpt lat="43.78389" lon="7.24604">
        <ele>492</ele>
        <time>2013-09-02T06:47:49Z</time>
      </trkpt>
      <trkpt lat="43.78381" lon="7.2461">
        <ele>492</ele>
        <time>2013-09-02T06:47:57Z</time>
      </trkpt>
      <trkpt lat="43.78376" lon="7.24621">
        <ele>485</ele>
        <time>2013-09-02T06:48:05Z</time>
      </trkpt>
      <trkpt lat="43.78368" lon="7.24629">
        <ele>485</ele>
        <time>2013-09-02T06:48:14Z</time>
      </trkpt>
      <trkpt lat="43.78362" lon="7.24639">
        <ele>485</ele>
        <time>2013-09-02T06:48:23Z</time>
      </trkpt>
      <trkpt lat="43.78357" lon="7.2465">
        <ele>485</ele>
        <time>2013-09-02T06:48:30Z</time>
      </trkpt>
      <trkpt lat="43.78352" lon="7.2466">
        <ele>485</ele>
        <time>2013-09-02T06:48:39Z</time>
      </trkpt>
      <trkpt lat="43.78345" lon="7.24669">
        <ele>485</ele>
        <time>2013-09-02T06:48:49Z</time>
      </trkpt>
      <trkpt lat="43.7834" lon="7.24679">
        <ele>485</ele>
        <time>2013-09-02T06:48:58Z</time>
      </trkpt>
      <trkpt lat="43.78339" lon="7.24692">
        <ele>485</ele>
        <time>2013-09-02T06:49:05Z</time>
      </trkpt>
      <trkpt lat="43.78333" lon="7.24702">
        <ele>485</ele>
        <time>2013-09-02T06:49:12Z</time>
      </trkpt>
      <trkpt lat="43.78333" lon="7.24714">
        <ele>485</ele>
        <time>2013-09-02T06:49:19Z</time>
      </trkpt>
      <trkpt lat="43.7833" lon="7.24728">
        <ele>485</ele>
        <time>2013-09-02T06:49:27Z</time>
      </trkpt>
      <trkpt lat="43.78328" lon="7.2474">
        <ele>493</ele>
        <time>2013-09-02T06:49:38Z</time>
      </trkpt>
      <trkpt lat="43.7832" lon="7.24748">
        <ele>493</ele>
        <time>2013-09-02T06:49:47Z</time>
      </trkpt>
      <trkpt lat="43.78315" lon="7.2476">
        <ele>487</ele>
        <time>2013-09-02T06:50:16Z</time>
      </trkpt>
      <trkpt lat="43.78313" lon="7.24772">
        <ele>496</ele>
        <time>2013-09-02T06:50:39Z</time>
      </trkpt>
      <trkpt lat="43.7831" lon="7.24784">
        <ele>496</ele>
        <time>2013-09-02T06:50:50Z</time>
      </trkpt>
      <trkpt lat="43.78309" lon="7.24798">
        <ele>496</ele>
        <time>2013-09-02T06:51:00Z</time>
      </trkpt>
      <trkpt lat="43.78309" lon="7.2481">
        <ele>496</ele>
        <time>2013-09-02T06:51:10Z</time>
      </trkpt>
      <trkpt lat="43.78309" lon="7.24823">
        <ele>496</ele>
        <time>2013-09-02T06:51:21Z</time>
      </trkpt>
      <trkpt lat="43.78307" lon="7.24835">
        <ele>496</ele>
        <time>2013-09-02T06:51:33Z</time>
      </trkpt>
      <trkpt lat="43.78306" lon="7.24848">
        <ele>496</ele>
        <time>2013-09-02T06:51:48Z</time>
      </trkpt>
      <trkpt lat="43.78302" lon="7.24859">
        <ele>506</ele>
        <time>2013-09-02T06:52:03Z</time>
      </trkpt>
      <trkpt lat="43.78301" lon="7.24871">
        <ele>506</ele>
        <time>2013-09-02T06:52:11Z</time>
      </trkpt>
      <trkpt lat="43.78301" lon="7.24884">
        <ele>506</ele>
        <time>2013-09-02T06:52:21Z</time>
      </trkpt>
      <trkpt lat="43.78302" lon="7.24897">
        <ele>506</ele>
        <time>2013-09-02T06:52:35Z</time>
      </trkpt>
      <trkpt lat="43.78299" lon="7.24909">
        <ele>506</ele>
        <time>2013-09-02T06:52:52Z</time>
      </trkpt>
      <trkpt lat="43.78298" lon="7.24922">
        <ele>506</ele>
        <time>2013-09-02T06:53:04Z</time>
      </trkpt>
      <trkpt lat="43.78292" lon="7.24932">
        <ele>515</ele>
        <time>2013-09-02T06:53:17Z</time>
      </trkpt>
      <trkpt lat="43.78285" lon="7.2494">
        <ele>515</ele>
        <time>2013-09-02T06:53:27Z</time>
      </trkpt>
      <trkpt lat="43.78288" lon="7.24951">
        <ele>515</ele>
        <time>2013-09-02T06:53:37Z</time>
      </trkpt>
      <trkpt lat="43.78282" lon="7.24962">
        <ele>522</ele>
        <time>2013-09-02T06:53:49Z</time>
      </trkpt>
      <trkpt lat="43.78281" lon="7.24975">
        <ele>522</ele>
        <time>2013-09-02T06:53:59Z</time>
      </trkpt>
      <trkpt lat="43.78279" lon="7.24987">
        <ele>522</ele>
        <time>2013-09-02T06:54:08Z</time>
      </trkpt>
      <trkpt lat="43.78272" lon="7.24996">
        <ele>522</ele>
        <time>2013-09-02T06:54:21Z</time>
      </trkpt>
      <trkpt lat="43.78266" lon="7.25006">
        <ele>528</ele>
        <time>2013-09-02T06:54:34Z</time>
      </trkpt>
      <trkpt lat="43.78262" lon="7.25017">
        <ele>528</ele>
        <time>2013-09-02T06:54:46Z</time>
      </trkpt>
      <trkpt lat="43.78255" lon="7.25026">
        <ele>528</ele>
        <time>2013-09-02T06:54:57Z</time>
      </trkpt>
      <trkpt lat="43.78251" lon="7.25037">
        <ele>528</ele>
        <time>2013-09-02T06:55:13Z</time>
      </trkpt>
      <trkpt lat="43.78244" lon="7.25046">
        <ele>528</ele>
        <time>2013-09-02T06:55:28Z</time>
      </trkpt>
      <trkpt lat="43.78241" lon="7.25057">
        <ele>528</ele>
        <time>2013-09-02T06:55:48Z</time>
      </trkpt>
      <trkpt lat="43.78233" lon="7.25066">
        <ele>535</ele>
        <time>2013-09-02T06:56:01Z</time>
      </trkpt>
      <trkpt lat="43.78227" lon="7.25077">
        <ele>535</ele>
        <time>2013-09-02T06:56:13Z</time>
      </trkpt>
      <trkpt lat="43.78221" lon="7.25087">
        <ele>535</ele>
        <time>2013-09-02T06:56:23Z</time>
      </trkpt>
      <trkpt lat="43.78218" lon="7.25099">
        <ele>535</ele>
        <time>2013-09-02T06:56:33Z</time>
      </trkpt>
      <trkpt lat="43.78214" lon="7.2511">
        <ele>535</ele>
        <time>2013-09-02T06:56:41Z</time>
      </trkpt>
      <trkpt lat="43.7821" lon="7.25121">
        <ele>535</ele>
        <time>2013-09-02T06:56:53Z</time>
      </trkpt>
      <trkpt lat="43.78207" lon="7.25133">
        <ele>535</ele>
        <time>2013-09-02T06:57:03Z</time>
      </trkpt>
      <trkpt lat="43.782" lon="7.25144">
        <ele>542</ele>
        <time>2013-09-02T06:57:17Z</time>
      </trkpt>
      <trkpt lat="43.78195" lon="7.25155">
        <ele>542</ele>
        <time>2013-09-02T06:57:26Z</time>
      </trkpt>
      <trkpt lat="43.78188" lon="7.25165">
        <ele>542</ele>
        <time>2013-09-02T06:57:34Z</time>
      </trkpt>
      <trkpt lat="43.78184" lon="7.25176">
        <ele>542</ele>
        <time>2013-09-02T06:57:48Z</time>
      </trkpt>
      <trkpt lat="43.78178" lon="7.25187">
        <ele>553</ele>
        <time>2013-09-02T06:58:06Z</time>
      </trkpt>
      <trkpt lat="43.7817" lon="7.25196">
        <ele>553</ele>
        <time>2013-09-02T06:58:15Z</time>
      </trkpt>
      <trkpt lat="43.78164" lon="7.25207">
        <ele>546</ele>
        <time>2013-09-02T06:58:23Z</time>
      </trkpt>
      <trkpt lat="43.78157" lon="7.25217">
        <ele>546</ele>
        <time>2013-09-02T06:58:30Z</time>
      </trkpt>
      <trkpt lat="43.78154" lon="7.25229">
        <ele>540</ele>
        <time>2013-09-02T06:58:36Z</time>
      </trkpt>
      <trkpt lat="43.78149" lon="7.25239">
        <ele>540</ele>
        <time>2013-09-02T06:58:44Z</time>
      </trkpt>
      <trkpt lat="43.78146" lon="7.25226">
        <ele>540</ele>
        <time>2013-09-02T07:00:27Z</time>
      </trkpt>
      <trkpt lat="43.78152" lon="7.25236">
        <ele>540</ele>
        <time>2013-09-02T07:00:59Z</time>
      </trkpt>
      <trkpt lat="43.78143" lon="7.25241">
        <ele>540</ele>
        <time>2013-09-02T07:01:41Z</time>
      </trkpt>
      <trkpt lat="43.78136" lon="7.25249">
        <ele>552</ele>
        <time>2013-09-02T07:01:57Z</time>
      </trkpt>
      <trkpt lat="43.78128" lon="7.25257">
        <ele>552</ele>
        <time>2013-09-02T07:02:06Z</time>
      </trkpt>
      <trkpt lat="43.78121" lon="7.25264">
        <ele>552</ele>
        <time>2013-09-02T07:02:16Z</time>
      </trkpt>
      <trkpt lat="43.78113" lon="7.2527">
        <ele>552</ele>
        <time>2013-09-02T07:02:27Z</time>
      </trkpt>
      <trkpt lat="43.78104" lon="7.25276">
        <ele>552</ele>
        <time>2013-09-02T07:02:39Z</time>
      </trkpt>
      <trkpt lat="43.78097" lon="7.25282">
        <ele>552</ele>
        <time>2013-09-02T07:02:49Z</time>
      </trkpt>
      <trkpt lat="43.78091" lon="7.25292">
        <ele>552</ele>
        <time>2013-09-02T07:03:35Z</time>
      </trkpt>
      <trkpt lat="43.78082" lon="7.25294">
        <ele>552</ele>
        <time>2013-09-02T07:03:46Z</time>
      </trkpt>
      <trkpt lat="43.78072" lon="7.25299">
        <ele>552</ele>
        <time>2013-09-02T07:03:55Z</time>
      </trkpt>
      <trkpt lat="43.78063" lon="7.25304">
        <ele>562</ele>
        <time>2013-09-02T07:04:11Z</time>
      </trkpt>
      <trkpt lat="43.78056" lon="7.25311">
        <ele>562</ele>
        <time>2013-09-02T07:04:29Z</time>
      </trkpt>
      <trkpt lat="43.78048" lon="7.2532">
        <ele>570</ele>
        <time>2013-09-02T07:04:45Z</time>
      </trkpt>
      <trkpt lat="43.7804" lon="7.25323">
        <ele>570</ele>
        <time>2013-09-02T07:04:58Z</time>
      </trkpt>
      <trkpt lat="43.78031" lon="7.25329">
        <ele>570</ele>
        <time>2013-09-02T07:05:11Z</time>
      </trkpt>
      <trkpt lat="43.78024" lon="7.25336">
        <ele>570</ele>
        <time>2013-09-02T07:05:23Z</time>
      </trkpt>
      <trkpt lat="43.78017" lon="7.25344">
        <ele>570</ele>
        <time>2013-09-02T07:05:32Z</time>
      </trkpt>
      <trkpt lat="43.78012" lon="7.25354">
        <ele>570</ele>
        <time>2013-09-02T07:05:41Z</time>
      </trkpt>
      <trkpt lat="43.78003" lon="7.25361">
        <ele>570</ele>
        <time>2013-09-02T07:05:50Z</time>
      </trkpt>
      <trkpt lat="43.77996" lon="7.25369">
        <ele>570</ele>
        <time>2013-09-02T07:06:02Z</time>
      </trkpt>
      <trkpt lat="43.77993" lon="7.25381">
        <ele>570</ele>
        <time>2013-09-02T07:06:14Z</time>
      </trkpt>
      <trkpt lat="43.77985" lon="7.25387">
        <ele>570</ele>
        <time>2013-09-02T07:06:27Z</time>
      </trkpt>
      <trkpt lat="43.77977" lon="7.25395">
        <ele>575</ele>
        <time>2013-09-02T07:06:35Z</time>
      </trkpt>
      <trkpt lat="43.77979" lon="7.25408">
        <ele>598</ele>
        <time>2013-09-02T07:07:00Z</time>
      </trkpt>
      <trkpt lat="43.77972" lon="7.25417">
        <ele>598</ele>
        <time>2013-09-02T07:07:12Z</time>
      </trkpt>
      <trkpt lat="43.77964" lon="7.25424">
        <ele>598</ele>
        <time>2013-09-02T07:07:24Z</time>
      </trkpt>
      <trkpt lat="43.77959" lon="7.25435">
        <ele>598</ele>
        <time>2013-09-02T07:07:34Z</time>
      </trkpt>
      <trkpt lat="43.77949" lon="7.2544">
        <ele>598</ele>
        <time>2013-09-02T07:07:42Z</time>
      </trkpt>
      <trkpt lat="43.77946" lon="7.25452">
        <ele>598</ele>
        <time>2013-09-02T07:07:52Z</time>
      </trkpt>
      <trkpt lat="43.77941" lon="7.25462">
        <ele>590</ele>
        <time>2013-09-02T07:07:59Z</time>
      </trkpt>
      <trkpt lat="43.77925" lon="7.25464">
        <ele>582</ele>
        <time>2013-09-02T07:08:10Z</time>
      </trkpt>
      <trkpt lat="43.77918" lon="7.25475">
        <ele>575</ele>
        <time>2013-09-02T07:08:16Z</time>
      </trkpt>
      <trkpt lat="43.77916" lon="7.25492">
        <ele>575</ele>
        <time>2013-09-02T07:08:26Z</time>
      </trkpt>
      <trkpt lat="43.77925" lon="7.25497">
        <ele>589</ele>
        <time>2013-09-02T07:08:36Z</time>
      </trkpt>
      <trkpt lat="43.77919" lon="7.25507">
        <ele>599</ele>
        <time>2013-09-02T07:09:01Z</time>
      </trkpt>
      <trkpt lat="43.77911" lon="7.25516">
        <ele>599</ele>
        <time>2013-09-02T07:09:13Z</time>
      </trkpt>
      <trkpt lat="43.77904" lon="7.25523">
        <ele>599</ele>
        <time>2013-09-02T07:09:22Z</time>
      </trkpt>
      <trkpt lat="43.77895" lon="7.25529">
        <ele>591</ele>
        <time>2013-09-02T07:09:28Z</time>
      </trkpt>
      <trkpt lat="43.7789" lon="7.2554">
        <ele>591</ele>
        <time>2013-09-02T07:09:43Z</time>
      </trkpt>
      <trkpt lat="43.77891" lon="7.25552">
        <ele>591</ele>
        <time>2013-09-02T07:09:59Z</time>
      </trkpt>
      <trkpt lat="43.77884" lon="7.25561">
        <ele>606</ele>
        <time>2013-09-02T07:10:36Z</time>
      </trkpt>
      <trkpt lat="43.77884" lon="7.25574">
        <ele>614</ele>
        <time>2013-09-02T07:11:11Z</time>
      </trkpt>
      <trkpt lat="43.77881" lon="7.25585">
        <ele>607</ele>
        <time>2013-09-02T07:11:26Z</time>
      </trkpt>
      <trkpt lat="43.77872" lon="7.25582">
        <ele>624</ele>
        <time>2013-09-02T07:12:32Z</time>
      </trkpt>
      <trkpt lat="43.77865" lon="7.2559">
        <ele>619</ele>
        <time>2013-09-02T07:12:41Z</time>
      </trkpt>
      <trkpt lat="43.7786" lon="7.25601">
        <ele>619</ele>
        <time>2013-09-02T07:12:52Z</time>
      </trkpt>
      <trkpt lat="43.77864" lon="7.25612">
        <ele>619</ele>
        <time>2013-09-02T07:13:07Z</time>
      </trkpt>
      <trkpt lat="43.77867" lon="7.25624">
        <ele>619</ele>
        <time>2013-09-02T07:13:22Z</time>
      </trkpt>
      <trkpt lat="43.77858" lon="7.25623">
        <ele>628</ele>
        <time>2013-09-02T07:14:05Z</time>
      </trkpt>
      <trkpt lat="43.77849" lon="7.2562">
        <ele>628</ele>
        <time>2013-09-02T07:14:17Z</time>
      </trkpt>
      <trkpt lat="43.77841" lon="7.25624">
        <ele>628</ele>
        <time>2013-09-02T07:14:31Z</time>
      </trkpt>
      <trkpt lat="43.77831" lon="7.25622">
        <ele>634</ele>
        <time>2013-09-02T07:14:56Z</time>
      </trkpt>
      <trkpt lat="43.77822" lon="7.25619">
        <ele>634</ele>
        <time>2013-09-02T07:15:16Z</time>
      </trkpt>
      <trkpt lat="43.77814" lon="7.25612">
        <ele>634</ele>
        <time>2013-09-02T07:15:35Z</time>
      </trkpt>
      <trkpt lat="43.77808" lon="7.25623">
        <ele>643</ele>
        <time>2013-09-02T07:15:58Z</time>
      </trkpt>
      <trkpt lat="43.77813" lon="7.25612">
        <ele>654</ele>
        <time>2013-09-02T07:16:33Z</time>
      </trkpt>
      <trkpt lat="43.77805" lon="7.25606">
        <ele>654</ele>
        <time>2013-09-02T07:16:54Z</time>
      </trkpt>
      <trkpt lat="43.77796" lon="7.25611">
        <ele>654</ele>
        <time>2013-09-02T07:17:16Z</time>
      </trkpt>
      <trkpt lat="43.77787" lon="7.25615">
        <ele>648</ele>
        <time>2013-09-02T07:17:25Z</time>
      </trkpt>
      <trkpt lat="43.77783" lon="7.25627">
        <ele>648</ele>
        <time>2013-09-02T07:17:36Z</time>
      </trkpt>
      <trkpt lat="43.77791" lon="7.2562">
        <ele>662</ele>
        <time>2013-09-02T07:17:53Z</time>
      </trkpt>
      <trkpt lat="43.77781" lon="7.25621">
        <ele>662</ele>
        <time>2013-09-02T07:18:11Z</time>
      </trkpt>
      <trkpt lat="43.77774" lon="7.25629">
        <ele>662</ele>
        <time>2013-09-02T07:18:38Z</time>
      </trkpt>
      <trkpt lat="43.77765" lon="7.25634">
        <ele>673</ele>
        <time>2013-09-02T07:19:04Z</time>
      </trkpt>
      <trkpt lat="43.77756" lon="7.2564">
        <ele>673</ele>
        <time>2013-09-02T07:19:14Z</time>
      </trkpt>
      <trkpt lat="43.7775" lon="7.25649">
        <ele>673</ele>
        <time>2013-09-02T07:19:32Z</time>
      </trkpt>
      <trkpt lat="43.77744" lon="7.25659">
        <ele>673</ele>
        <time>2013-09-02T07:19:54Z</time>
      </trkpt>
      <trkpt lat="43.77737" lon="7.25668">
        <ele>673</ele>
        <time>2013-09-02T07:20:11Z</time>
      </trkpt>
      <trkpt lat="43.77734" lon="7.2568">
        <ele>673</ele>
        <time>2013-09-02T07:20:25Z</time>
      </trkpt>
      <trkpt lat="43.77731" lon="7.25691">
        <ele>673</ele>
        <time>2013-09-02T07:20:42Z</time>
      </trkpt>
      <trkpt lat="43.77726" lon="7.25702">
        <ele>673</ele>
        <time>2013-09-02T07:20:56Z</time>
      </trkpt>
      <trkpt lat="43.77725" lon="7.25715">
        <ele>673</ele>
        <time>2013-09-02T07:21:12Z</time>
      </trkpt>
      <trkpt lat="43.77723" lon="7.25727">
        <ele>673</ele>
        <time>2013-09-02T07:21:27Z</time>
      </trkpt>
      <trkpt lat="43.77724" lon="7.25741">
        <ele>681</ele>
        <time>2013-09-02T07:21:45Z</time>
      </trkpt>
      <trkpt lat="43.77724" lon="7.25753">
        <ele>681</ele>
        <time>2013-09-02T07:21:59Z</time>
      </trkpt>
      <trkpt lat="43.77723" lon="7.25766">
        <ele>681</ele>
        <time>2013-09-02T07:22:12Z</time>
      </trkpt>
      <trkpt lat="43.77718" lon="7.25777">
        <ele>681</ele>
        <time>2013-09-02T07:22:28Z</time>
      </trkpt>
      <trkpt lat="43.77713" lon="7.25787">
        <ele>687</ele>
        <time>2013-09-02T07:22:44Z</time>
      </trkpt>
      <trkpt lat="43.7771" lon="7.25798">
        <ele>687</ele>
        <time>2013-09-02T07:22:57Z</time>
      </trkpt>
      <trkpt lat="43.77706" lon="7.2581">
        <ele>687</ele>
        <time>2013-09-02T07:23:12Z</time>
      </trkpt>
      <trkpt lat="43.77701" lon="7.2582">
        <ele>687</ele>
        <time>2013-09-02T07:23:25Z</time>
      </trkpt>
      <trkpt lat="43.77694" lon="7.25827">
        <ele>687</ele>
        <time>2013-09-02T07:23:38Z</time>
      </trkpt>
      <trkpt lat="43.77686" lon="7.25836">
        <ele>687</ele>
        <time>2013-09-02T07:23:51Z</time>
      </trkpt>
      <trkpt lat="43.77679" lon="7.25842">
        <ele>697</ele>
        <time>2013-09-02T07:24:09Z</time>
      </trkpt>
      <trkpt lat="43.7767" lon="7.2585">
        <ele>703</ele>
        <time>2013-09-02T07:24:27Z</time>
      </trkpt>
      <trkpt lat="43.77665" lon="7.2586">
        <ele>703</ele>
        <time>2013-09-02T07:24:38Z</time>
      </trkpt>
      <trkpt lat="43.77658" lon="7.25868">
        <ele>709</ele>
        <time>2013-09-02T07:24:59Z</time>
      </trkpt>
      <trkpt lat="43.77651" lon="7.25877">
        <ele>709</ele>
        <time>2013-09-02T07:25:16Z</time>
      </trkpt>
      <trkpt lat="43.77644" lon="7.25887">
        <ele>709</ele>
        <time>2013-09-02T07:25:26Z</time>
      </trkpt>
      <trkpt lat="43.77638" lon="7.25896">
        <ele>709</ele>
        <time>2013-09-02T07:25:43Z</time>
      </trkpt>
      <trkpt lat="43.77633" lon="7.25907">
        <ele>717</ele>
        <time>2013-09-02T07:26:07Z</time>
      </trkpt>
      <trkpt lat="43.77626" lon="7.25916">
        <ele>717</ele>
        <time>2013-09-02T07:26:23Z</time>
      </trkpt>
      <trkpt lat="43.77619" lon="7.25925">
        <ele>717</ele>
        <time>2013-09-02T07:26:41Z</time>
      </trkpt>
      <trkpt lat="43.77612" lon="7.25931">
        <ele>717</ele>
        <time>2013-09-02T07:26:56Z</time>
      </trkpt>
      <trkpt lat="43.77604" lon="7.25939">
        <ele>717</ele>
        <time>2013-09-02T07:27:12Z</time>
      </trkpt>
      <trkpt lat="43.776" lon="7.25951">
        <ele>717</ele>
        <time>2013-09-02T07:27:25Z</time>
      </trkpt>
      <trkpt lat="43.77593" lon="7.25959">
        <ele>717</ele>
        <time>2013-09-02T07:27:44Z</time>
      </trkpt>
      <trkpt lat="43.77584" lon="7.25964">
        <ele>723</ele>
        <time>2013-09-02T07:28:04Z</time>
      </trkpt>
      <trkpt lat="43.77577" lon="7.25971">
        <ele>723</ele>
        <time>2013-09-02T07:28:15Z</time>
      </trkpt>
      <trkpt lat="43.77571" lon="7.2598">
        <ele>718</ele>
        <time>2013-09-02T07:28:26Z</time>
      </trkpt>
      <trkpt lat="43.77563" lon="7.25988">
        <ele>718</ele>
        <time>2013-09-02T07:28:38Z</time>
      </trkpt>
      <trkpt lat="43.77556" lon="7.25995">
        <ele>718</ele>
        <time>2013-09-02T07:28:51Z</time>
      </trkpt>
      <trkpt lat="43.77548" lon="7.26002">
        <ele>724</ele>
        <time>2013-09-02T07:29:04Z</time>
      </trkpt>
      <trkpt lat="43.7754" lon="7.26008">
        <ele>724</ele>
        <time>2013-09-02T07:29:19Z</time>
      </trkpt>
      <trkpt lat="43.77533" lon="7.26018">
        <ele>724</ele>
        <time>2013-09-02T07:29:33Z</time>
      </trkpt>
      <trkpt lat="43.77526" lon="7.26026">
        <ele>724</ele>
        <time>2013-09-02T07:29:46Z</time>
      </trkpt>
      <trkpt lat="43.77518" lon="7.26032">
        <ele>724</ele>
        <time>2013-09-02T07:29:59Z</time>
      </trkpt>
      <trkpt lat="43.77509" lon="7.26036">
        <ele>724</ele>
        <time>2013-09-02T07:30:10Z</time>
      </trkpt>
      <trkpt lat="43.77505" lon="7.26046">
        <ele>724</ele>
        <time>2013-09-02T07:30:29Z</time>
      </trkpt>
      <trkpt lat="43.77496" lon="7.26042">
        <ele>724</ele>
        <time>2013-09-02T07:35:51Z</time>
      </trkpt>
      <trkpt lat="43.77488" lon="7.26046">
        <ele>724</ele>
        <time>2013-09-02T07:36:02Z</time>
      </trkpt>
      <trkpt lat="43.77487" lon="7.2606">
        <ele>724</ele>
        <time>2013-09-02T07:36:12Z</time>
      </trkpt>
      <trkpt lat="43.77481" lon="7.2607">
        <ele>724</ele>
        <time>2013-09-02T07:36:20Z</time>
      </trkpt>
      <trkpt lat="43.77473" lon="7.26077">
        <ele>717</ele>
        <time>2013-09-02T07:36:29Z</time>
      </trkpt>
      <trkpt lat="43.77465" lon="7.26083">
        <ele>709</ele>
        <time>2013-09-02T07:36:42Z</time>
      </trkpt>
      <trkpt lat="43.77458" lon="7.26091">
        <ele>709</ele>
        <time>2013-09-02T07:36:51Z</time>
      </trkpt>
      <trkpt lat="43.7745" lon="7.26097">
        <ele>709</ele>
        <time>2013-09-02T07:37:00Z</time>
      </trkpt>
      <trkpt lat="43.77443" lon="7.26106">
        <ele>709</ele>
        <time>2013-09-02T07:37:10Z</time>
      </trkpt>
      <trkpt lat="43.77438" lon="7.26116">
        <ele>709</ele>
        <time>2013-09-02T07:37:19Z</time>
      </trkpt>
      <trkpt lat="43.77431" lon="7.26124">
        <ele>709</ele>
        <time>2013-09-02T07:37:29Z</time>
      </trkpt>
      <trkpt lat="43.77423" lon="7.26132">
        <ele>709</ele>
        <time>2013-09-02T07:37:38Z</time>
      </trkpt>
      <trkpt lat="43.77418" lon="7.26142">
        <ele>709</ele>
        <time>2013-09-02T07:37:48Z</time>
      </trkpt>
      <trkpt lat="43.77412" lon="7.26151">
        <ele>718</ele>
        <time>2013-09-02T07:37:58Z</time>
      </trkpt>
      <trkpt lat="43.77406" lon="7.2616">
        <ele>718</ele>
        <time>2013-09-02T07:38:13Z</time>
      </trkpt>
      <trkpt lat="43.77397" lon="7.26169">
        <ele>718</ele>
        <time>2013-09-02T07:38:28Z</time>
      </trkpt>
      <trkpt lat="43.77388" lon="7.26174">
        <ele>728</ele>
        <time>2013-09-02T07:39:04Z</time>
      </trkpt>
      <trkpt lat="43.77387" lon="7.26186">
        <ele>728</ele>
        <time>2013-09-02T07:40:10Z</time>
      </trkpt>
      <trkpt lat="43.77382" lon="7.26196">
        <ele>728</ele>
        <time>2013-09-02T07:40:19Z</time>
      </trkpt>
      <trkpt lat="43.77375" lon="7.26205">
        <ele>728</ele>
        <time>2013-09-02T07:40:28Z</time>
      </trkpt>
      <trkpt lat="43.77369" lon="7.26214">
        <ele>722</ele>
        <time>2013-09-02T07:40:38Z</time>
      </trkpt>
      <trkpt lat="43.77364" lon="7.26224">
        <ele>722</ele>
        <time>2013-09-02T07:40:52Z</time>
      </trkpt>
      <trkpt lat="43.7736" lon="7.26237">
        <ele>722</ele>
        <time>2013-09-02T07:41:02Z</time>
      </trkpt>
      <trkpt lat="43.77358" lon="7.26248">
        <ele>722</ele>
        <time>2013-09-02T07:41:20Z</time>
      </trkpt>
      <trkpt lat="43.77349" lon="7.2625">
        <ele>722</ele>
        <time>2013-09-02T07:42:20Z</time>
      </trkpt>
      <trkpt lat="43.77339" lon="7.26254">
        <ele>717</ele>
        <time>2013-09-02T07:42:28Z</time>
      </trkpt>
      <trkpt lat="43.7733" lon="7.26257">
        <ele>717</ele>
        <time>2013-09-02T07:42:36Z</time>
      </trkpt>
      <trkpt lat="43.7732" lon="7.2626">
        <ele>717</ele>
        <time>2013-09-02T07:42:44Z</time>
      </trkpt>
      <trkpt lat="43.77312" lon="7.26265">
        <ele>717</ele>
        <time>2013-09-02T07:42:53Z</time>
      </trkpt>
      <trkpt lat="43.77302" lon="7.26274">
        <ele>717</ele>
        <time>2013-09-02T07:43:02Z</time>
      </trkpt>
      <trkpt lat="43.77294" lon="7.2628">
        <ele>717</ele>
        <time>2013-09-02T07:43:10Z</time>
      </trkpt>
      <trkpt lat="43.77285" lon="7.26283">
        <ele>717</ele>
        <time>2013-09-02T07:43:17Z</time>
      </trkpt>
      <trkpt lat="43.77276" lon="7.26287">
        <ele>717</ele>
        <time>2013-09-02T07:43:26Z</time>
      </trkpt>
      <trkpt lat="43.77267" lon="7.26288">
        <ele>717</ele>
        <time>2013-09-02T07:43:33Z</time>
      </trkpt>
      <trkpt lat="43.77258" lon="7.26288">
        <ele>717</ele>
        <time>2013-09-02T07:43:42Z</time>
      </trkpt>
      <trkpt lat="43.77249" lon="7.26289">
        <ele>717</ele>
        <time>2013-09-02T07:43:49Z</time>
      </trkpt>
      <trkpt lat="43.77239" lon="7.26289">
        <ele>717</ele>
        <time>2013-09-02T07:43:57Z</time>
      </trkpt>
      <trkpt lat="43.77229" lon="7.26287">
        <ele>717</ele>
        <time>2013-09-02T07:44:04Z</time>
      </trkpt>
      <trkpt lat="43.7722" lon="7.26292">
        <ele>717</ele>
        <time>2013-09-02T07:44:13Z</time>
      </trkpt>
      <trkpt lat="43.7721" lon="7.26292">
        <ele>717</ele>
        <time>2013-09-02T07:44:20Z</time>
      </trkpt>
      <trkpt lat="43.77201" lon="7.26289">
        <ele>717</ele>
        <time>2013-09-02T07:44:29Z</time>
      </trkpt>
      <trkpt lat="43.77196" lon="7.26277">
        <ele>717</ele>
        <time>2013-09-02T07:44:39Z</time>
      </trkpt>
      <trkpt lat="43.77196" lon="7.26265">
        <ele>717</ele>
        <time>2013-09-02T07:44:47Z</time>
      </trkpt>
      <trkpt lat="43.77196" lon="7.26251">
        <ele>717</ele>
        <time>2013-09-02T07:44:56Z</time>
      </trkpt>
      <trkpt lat="43.77196" lon="7.26239">
        <ele>717</ele>
        <time>2013-09-02T07:45:03Z</time>
      </trkpt>
      <trkpt lat="43.77199" lon="7.26224">
        <ele>717</ele>
        <time>2013-09-02T07:45:12Z</time>
      </trkpt>
      <trkpt lat="43.77203" lon="7.26212">
        <ele>717</ele>
        <time>2013-09-02T07:45:21Z</time>
      </trkpt>
      <trkpt lat="43.77203" lon="7.26199">
        <ele>717</ele>
        <time>2013-09-02T07:45:29Z</time>
      </trkpt>
      <trkpt lat="43.77205" lon="7.26186">
        <ele>709</ele>
        <time>2013-09-02T07:45:36Z</time>
      </trkpt>
      <trkpt lat="43.77209" lon="7.26173">
        <ele>709</ele>
        <time>2013-09-02T07:45:45Z</time>
      </trkpt>
      <trkpt lat="43.77208" lon="7.2616">
        <ele>709</ele>
        <time>2013-09-02T07:45:53Z</time>
      </trkpt>
      <trkpt lat="43.77206" lon="7.26147">
        <ele>709</ele>
        <time>2013-09-02T07:46:03Z</time>
      </trkpt>
      <trkpt lat="43.7721" lon="7.26134">
        <ele>709</ele>
        <time>2013-09-02T07:46:11Z</time>
      </trkpt>
      <trkpt lat="43.77211" lon="7.26122">
        <ele>709</ele>
        <time>2013-09-02T07:46:17Z</time>
      </trkpt>
      <trkpt lat="43.77212" lon="7.26108">
        <ele>709</ele>
        <time>2013-09-02T07:46:24Z</time>
      </trkpt>
      <trkpt lat="43.77215" lon="7.26096">
        <ele>709</ele>
        <time>2013-09-02T07:46:33Z</time>
      </trkpt>
      <trkpt lat="43.77213" lon="7.26083">
        <ele>709</ele>
        <time>2013-09-02T07:46:40Z</time>
      </trkpt>
      <trkpt lat="43.77216" lon="7.26071">
        <ele>709</ele>
        <time>2013-09-02T07:46:48Z</time>
      </trkpt>
      <trkpt lat="43.7722" lon="7.2606">
        <ele>702</ele>
        <time>2013-09-02T07:48:02Z</time>
      </trkpt>
      <trkpt lat="43.77222" lon="7.26046">
        <ele>702</ele>
        <time>2013-09-02T07:48:11Z</time>
      </trkpt>
      <trkpt lat="43.77228" lon="7.26036">
        <ele>702</ele>
        <time>2013-09-02T07:48:20Z</time>
      </trkpt>
      <trkpt lat="43.77236" lon="7.26028">
        <ele>708</ele>
        <time>2013-09-02T07:48:30Z</time>
      </trkpt>
      <trkpt lat="43.77241" lon="7.26018">
        <ele>708</ele>
        <time>2013-09-02T07:48:38Z</time>
      </trkpt>
      <trkpt lat="43.77246" lon="7.26008">
        <ele>708</ele>
        <time>2013-09-02T07:48:46Z</time>
      </trkpt>
      <trkpt lat="43.77247" lon="7.25994">
        <ele>708</ele>
        <time>2013-09-02T07:48:55Z</time>
      </trkpt>
      <trkpt lat="43.77248" lon="7.2598">
        <ele>708</ele>
        <time>2013-09-02T07:49:04Z</time>
      </trkpt>
      <trkpt lat="43.77243" lon="7.2597">
        <ele>708</ele>
        <time>2013-09-02T07:49:11Z</time>
      </trkpt>
      <trkpt lat="43.77235" lon="7.25959">
        <ele>708</ele>
        <time>2013-09-02T07:49:20Z</time>
      </trkpt>
      <trkpt lat="43.77228" lon="7.25952">
        <ele>708</ele>
        <time>2013-09-02T07:49:27Z</time>
      </trkpt>
      <trkpt lat="43.7722" lon="7.25946">
        <ele>708</ele>
        <time>2013-09-02T07:49:35Z</time>
      </trkpt>
      <trkpt lat="43.77211" lon="7.25943">
        <ele>708</ele>
        <time>2013-09-02T07:49:43Z</time>
      </trkpt>
      <trkpt lat="43.77202" lon="7.25938">
        <ele>708</ele>
        <time>2013-09-02T07:49:51Z</time>
      </trkpt>
      <trkpt lat="43.77194" lon="7.25933">
        <ele>708</ele>
        <time>2013-09-02T07:50:00Z</time>
      </trkpt>
      <trkpt lat="43.77185" lon="7.25927">
        <ele>708</ele>
        <time>2013-09-02T07:50:09Z</time>
      </trkpt>
      <trkpt lat="43.77176" lon="7.25921">
        <ele>708</ele>
        <time>2013-09-02T07:50:17Z</time>
      </trkpt>
      <trkpt lat="43.77168" lon="7.25914">
        <ele>708</ele>
        <time>2013-09-02T07:50:25Z</time>
      </trkpt>
      <trkpt lat="43.77159" lon="7.25911">
        <ele>708</ele>
        <time>2013-09-02T07:50:35Z</time>
      </trkpt>
      <trkpt lat="43.7715" lon="7.2591">
        <ele>708</ele>
        <time>2013-09-02T07:50:43Z</time>
      </trkpt>
      <trkpt lat="43.7714" lon="7.2591">
        <ele>714</ele>
        <time>2013-09-02T07:50:52Z</time>
      </trkpt>
      <trkpt lat="43.77131" lon="7.2591">
        <ele>714</ele>
        <time>2013-09-02T07:51:00Z</time>
      </trkpt>
      <trkpt lat="43.77121" lon="7.25911">
        <ele>714</ele>
        <time>2013-09-02T07:51:08Z</time>
      </trkpt>
      <trkpt lat="43.77113" lon="7.25914">
        <ele>714</ele>
        <time>2013-09-02T07:51:17Z</time>
      </trkpt>
      <trkpt lat="43.77103" lon="7.25915">
        <ele>714</ele>
        <time>2013-09-02T07:51:27Z</time>
      </trkpt>
      <trkpt lat="43.77094" lon="7.25918">
        <ele>714</ele>
        <time>2013-09-02T07:51:36Z</time>
      </trkpt>
      <trkpt lat="43.77085" lon="7.25919">
        <ele>714</ele>
        <time>2013-09-02T07:51:44Z</time>
      </trkpt>
      <trkpt lat="43.77075" lon="7.25921">
        <ele>714</ele>
        <time>2013-09-02T07:51:54Z</time>
      </trkpt>
      <trkpt lat="43.77066" lon="7.25922">
        <ele>720</ele>
        <time>2013-09-02T07:52:01Z</time>
      </trkpt>
      <trkpt lat="43.77057" lon="7.25923">
        <ele>720</ele>
        <time>2013-09-02T07:52:08Z</time>
      </trkpt>
      <trkpt lat="43.77048" lon="7.25926">
        <ele>720</ele>
        <time>2013-09-02T07:52:17Z</time>
      </trkpt>
      <trkpt lat="43.77039" lon="7.25927">
        <ele>720</ele>
        <time>2013-09-02T07:52:25Z</time>
      </trkpt>
      <trkpt lat="43.77029" lon="7.25928">
        <ele>720</ele>
        <time>2013-09-02T07:52:34Z</time>
      </trkpt>
      <trkpt lat="43.7702" lon="7.25928">
        <ele>720</ele>
        <time>2013-09-02T07:52:43Z</time>
      </trkpt>
      <trkpt lat="43.7701" lon="7.25926">
        <ele>720</ele>
        <time>2013-09-02T07:52:51Z</time>
      </trkpt>
      <trkpt lat="43.77001" lon="7.25924">
        <ele>720</ele>
        <time>2013-09-02T07:52:59Z</time>
      </trkpt>
      <trkpt lat="43.76991" lon="7.25921">
        <ele>720</ele>
        <time>2013-09-02T07:53:08Z</time>
      </trkpt>
      <trkpt lat="43.76983" lon="7.25914">
        <ele>720</ele>
        <time>2013-09-02T07:53:17Z</time>
      </trkpt>
      <trkpt lat="43.76978" lon="7.25903">
        <ele>720</ele>
        <time>2013-09-02T07:53:25Z</time>
      </trkpt>
      <trkpt lat="43.76974" lon="7.25892">
        <ele>728</ele>
        <time>2013-09-02T07:53:36Z</time>
      </trkpt>
      <trkpt lat="43.7697" lon="7.2588">
        <ele>728</ele>
        <time>2013-09-02T07:53:45Z</time>
      </trkpt>
      <trkpt lat="43.76967" lon="7.25868">
        <ele>728</ele>
        <time>2013-09-02T07:53:55Z</time>
      </trkpt>
      <trkpt lat="43.76961" lon="7.25858">
        <ele>728</ele>
        <time>2013-09-02T07:54:13Z</time>
      </trkpt>
      <trkpt lat="43.76954" lon="7.25849">
        <ele>728</ele>
        <time>2013-09-02T07:54:24Z</time>
      </trkpt>
      <trkpt lat="43.76947" lon="7.2584">
        <ele>728</ele>
        <time>2013-09-02T07:54:35Z</time>
      </trkpt>
      <trkpt lat="43.7694" lon="7.25829">
        <ele>728</ele>
        <time>2013-09-02T07:54:47Z</time>
      </trkpt>
      <trkpt lat="43.76933" lon="7.25821">
        <ele>728</ele>
        <time>2013-09-02T07:54:56Z</time>
      </trkpt>
      <trkpt lat="43.7693" lon="7.25809">
        <ele>728</ele>
        <time>2013-09-02T07:55:05Z</time>
      </trkpt>
      <trkpt lat="43.76927" lon="7.25797">
        <ele>728</ele>
        <time>2013-09-02T07:55:15Z</time>
      </trkpt>
      <trkpt lat="43.76919" lon="7.2579">
        <ele>740</ele>
        <time>2013-09-02T07:55:23Z</time>
      </trkpt>
      <trkpt lat="43.76914" lon="7.2578">
        <ele>740</ele>
        <time>2013-09-02T07:55:32Z</time>
      </trkpt>
      <trkpt lat="43.76908" lon="7.2577">
        <ele>740</ele>
        <time>2013-09-02T07:55:43Z</time>
      </trkpt>
      <trkpt lat="43.76903" lon="7.25759">
        <ele>740</ele>
        <time>2013-09-02T07:55:51Z</time>
      </trkpt>
      <trkpt lat="43.76896" lon="7.25751">
        <ele>734</ele>
        <time>2013-09-02T07:55:59Z</time>
      </trkpt>
      <trkpt lat="43.76888" lon="7.25744">
        <ele>734</ele>
        <time>2013-09-02T07:56:10Z</time>
      </trkpt>
      <trkpt lat="43.76879" lon="7.25744">
        <ele>750</ele>
        <time>2013-09-02T07:56:27Z</time>
      </trkpt>
      <trkpt lat="43.76879" lon="7.2573">
        <ele>741</ele>
        <time>2013-09-02T07:56:52Z</time>
      </trkpt>
      <trkpt lat="43.76876" lon="7.25718">
        <ele>741</ele>
        <time>2013-09-02T07:57:03Z</time>
      </trkpt>
      <trkpt lat="43.76873" lon="7.25705">
        <ele>741</ele>
        <time>2013-09-02T07:57:14Z</time>
      </trkpt>
      <trkpt lat="43.76869" lon="7.25693">
        <ele>741</ele>
        <time>2013-09-02T07:57:24Z</time>
      </trkpt>
      <trkpt lat="43.76865" lon="7.25682">
        <ele>741</ele>
        <time>2013-09-02T07:57:33Z</time>
      </trkpt>
      <trkpt lat="43.7686" lon="7.2567">
        <ele>741</ele>
        <time>2013-09-02T07:57:43Z</time>
      </trkpt>
      <trkpt lat="43.76855" lon="7.25657">
        <ele>741</ele>
        <time>2013-09-02T07:57:55Z</time>
      </trkpt>
      <trkpt lat="43.76852" lon="7.25646">
        <ele>741</ele>
        <time>2013-09-02T07:58:03Z</time>
      </trkpt>
      <trkpt lat="43.76843" lon="7.25642">
        <ele>741</ele>
        <time>2013-09-02T08:01:02Z</time>
      </trkpt>
      <trkpt lat="43.7684" lon="7.2563">
        <ele>751</ele>
        <time>2013-09-02T08:03:41Z</time>
      </trkpt>
      <trkpt lat="43.76837" lon="7.25619">
        <ele>751</ele>
        <time>2013-09-02T08:03:51Z</time>
      </trkpt>
      <trkpt lat="43.76831" lon="7.25608">
        <ele>751</ele>
        <time>2013-09-02T08:04:00Z</time>
      </trkpt>
      <trkpt lat="43.76829" lon="7.25595">
        <ele>751</ele>
        <time>2013-09-02T08:04:09Z</time>
      </trkpt>
      <trkpt lat="43.76826" lon="7.25583">
        <ele>751</ele>
        <time>2013-09-02T08:04:18Z</time>
      </trkpt>
      <trkpt lat="43.76825" lon="7.2557">
        <ele>744</ele>
        <time>2013-09-02T08:04:28Z</time>
      </trkpt>
      <trkpt lat="43.76825" lon="7.25556">
        <ele>744</ele>
        <time>2013-09-02T08:04:37Z</time>
      </trkpt>
      <trkpt lat="43.76828" lon="7.25544">
        <ele>744</ele>
        <time>2013-09-02T08:04:44Z</time>
      </trkpt>
      <trkpt lat="43.76831" lon="7.25532">
        <ele>744</ele>
        <time>2013-09-02T08:04:51Z</time>
      </trkpt>
      <trkpt lat="43.76836" lon="7.25522">
        <ele>744</ele>
        <time>2013-09-02T08:04:59Z</time>
      </trkpt>
      <trkpt lat="43.7684" lon="7.25508">
        <ele>739</ele>
        <time>2013-09-02T08:05:10Z</time>
      </trkpt>
      <trkpt lat="43.7684" lon="7.25496">
        <ele>739</ele>
        <time>2013-09-02T08:05:18Z</time>
      </trkpt>
      <trkpt lat="43.76842" lon="7.25483">
        <ele>739</ele>
        <time>2013-09-02T08:05:26Z</time>
      </trkpt>
      <trkpt lat="43.76842" lon="7.2547">
        <ele>739</ele>
        <time>2013-09-02T08:05:34Z</time>
      </trkpt>
      <trkpt lat="43.76845" lon="7.25459">
        <ele>739</ele>
        <time>2013-09-02T08:05:42Z</time>
      </trkpt>
      <trkpt lat="43.76851" lon="7.25448">
        <ele>733</ele>
        <time>2013-09-02T08:05:52Z</time>
      </trkpt>
      <trkpt lat="43.76853" lon="7.25435">
        <ele>733</ele>
        <time>2013-09-02T08:06:00Z</time>
      </trkpt>
      <trkpt lat="43.76858" lon="7.25426">
        <ele>733</ele>
        <time>2013-09-02T08:06:06Z</time>
      </trkpt>
      <trkpt lat="43.76864" lon="7.25416">
        <ele>728</ele>
        <time>2013-09-02T08:06:16Z</time>
      </trkpt>
      <trkpt lat="43.76866" lon="7.25403">
        <ele>728</ele>
        <time>2013-09-02T08:06:24Z</time>
      </trkpt>
      <trkpt lat="43.76868" lon="7.25391">
        <ele>728</ele>
        <time>2013-09-02T08:06:32Z</time>
      </trkpt>
      <trkpt lat="43.7687" lon="7.25378">
        <ele>728</ele>
        <time>2013-09-02T08:06:41Z</time>
      </trkpt>
      <trkpt lat="43.76869" lon="7.25365">
        <ele>728</ele>
        <time>2013-09-02T08:06:50Z</time>
      </trkpt>
      <trkpt lat="43.76874" lon="7.25354">
        <ele>728</ele>
        <time>2013-09-02T08:06:58Z</time>
      </trkpt>
      <trkpt lat="43.76879" lon="7.25342">
        <ele>723</ele>
        <time>2013-09-02T08:07:07Z</time>
      </trkpt>
      <trkpt lat="43.76884" lon="7.25332">
        <ele>723</ele>
        <time>2013-09-02T08:07:17Z</time>
      </trkpt>
      <trkpt lat="43.76892" lon="7.25323">
        <ele>717</ele>
        <time>2013-09-02T08:07:26Z</time>
      </trkpt>
      <trkpt lat="43.76901" lon="7.25317">
        <ele>710</ele>
        <time>2013-09-02T08:07:36Z</time>
      </trkpt>
      <trkpt lat="43.76909" lon="7.25308">
        <ele>710</ele>
        <time>2013-09-02T08:07:44Z</time>
      </trkpt>
      <trkpt lat="43.76907" lon="7.25295">
        <ele>718</ele>
        <time>2013-09-02T08:07:50Z</time>
      </trkpt>
      <trkpt lat="43.76906" lon="7.25281">
        <ele>724</ele>
        <time>2013-09-02T08:07:59Z</time>
      </trkpt>
      <trkpt lat="43.76909" lon="7.25268">
        <ele>724</ele>
        <time>2013-09-02T08:08:06Z</time>
      </trkpt>
      <trkpt lat="43.76913" lon="7.25256">
        <ele>724</ele>
        <time>2013-09-02T08:08:15Z</time>
      </trkpt>
      <trkpt lat="43.76916" lon="7.25244">
        <ele>716</ele>
        <time>2013-09-02T08:08:24Z</time>
      </trkpt>
      <trkpt lat="43.76919" lon="7.25232">
        <ele>716</ele>
        <time>2013-09-02T08:08:32Z</time>
      </trkpt>
      <trkpt lat="43.76921" lon="7.25219">
        <ele>711</ele>
        <time>2013-09-02T08:08:40Z</time>
      </trkpt>
      <trkpt lat="43.76924" lon="7.25206">
        <ele>711</ele>
        <time>2013-09-02T08:08:48Z</time>
      </trkpt>
      <trkpt lat="43.76927" lon="7.25195">
        <ele>711</ele>
        <time>2013-09-02T08:08:58Z</time>
      </trkpt>
      <trkpt lat="43.76931" lon="7.25183">
        <ele>705</ele>
        <time>2013-09-02T08:09:06Z</time>
      </trkpt>
      <trkpt lat="43.76932" lon="7.2517">
        <ele>705</ele>
        <time>2013-09-02T08:09:30Z</time>
      </trkpt>
      <trkpt lat="43.76936" lon="7.25159">
        <ele>705</ele>
        <time>2013-09-02T08:09:39Z</time>
      </trkpt>
      <trkpt lat="43.76942" lon="7.25149">
        <ele>705</ele>
        <time>2013-09-02T08:09:47Z</time>
      </trkpt>
      <trkpt lat="43.7695" lon="7.2514">
        <ele>705</ele>
        <time>2013-09-02T08:09:56Z</time>
      </trkpt>
      <trkpt lat="43.76955" lon="7.2513">
        <ele>705</ele>
        <time>2013-09-02T08:10:04Z</time>
      </trkpt>
      <trkpt lat="43.7696" lon="7.25119">
        <ele>705</ele>
        <time>2013-09-02T08:10:13Z</time>
      </trkpt>
      <trkpt lat="43.76967" lon="7.2511">
        <ele>705</ele>
        <time>2013-09-02T08:10:20Z</time>
      </trkpt>
      <trkpt lat="43.76974" lon="7.25102">
        <ele>705</ele>
        <time>2013-09-02T08:10:28Z</time>
      </trkpt>
      <trkpt lat="43.7698" lon="7.25092">
        <ele>705</ele>
        <time>2013-09-02T08:10:35Z</time>
      </trkpt>
      <trkpt lat="43.76971" lon="7.25085">
        <ele>705</ele>
        <time>2013-09-02T08:10:45Z</time>
      </trkpt>
      <trkpt lat="43.76964" lon="7.25093">
        <ele>699</ele>
        <time>2013-09-02T08:10:53Z</time>
      </trkpt>
      <trkpt lat="43.76957" lon="7.25102">
        <ele>699</ele>
        <time>2013-09-02T08:11:01Z</time>
      </trkpt>
      <trkpt lat="43.76949" lon="7.25109">
        <ele>699</ele>
        <time>2013-09-02T08:11:10Z</time>
      </trkpt>
      <trkpt lat="43.76942" lon="7.25117">
        <ele>693</ele>
        <time>2013-09-02T08:11:18Z</time>
      </trkpt>
      <trkpt lat="43.76935" lon="7.25125">
        <ele>693</ele>
        <time>2013-09-02T08:11:26Z</time>
      </trkpt>
      <trkpt lat="43.76927" lon="7.25132">
        <ele>693</ele>
        <time>2013-09-02T08:11:34Z</time>
      </trkpt>
      <trkpt lat="43.7692" lon="7.25141">
        <ele>693</ele>
        <time>2013-09-02T08:11:42Z</time>
      </trkpt>
      <trkpt lat="43.76914" lon="7.2515">
        <ele>693</ele>
        <time>2013-09-02T08:11:50Z</time>
      </trkpt>
      <trkpt lat="43.76909" lon="7.25161">
        <ele>693</ele>
        <time>2013-09-02T08:11:57Z</time>
      </trkpt>
      <trkpt lat="43.76904" lon="7.25171">
        <ele>693</ele>
        <time>2013-09-02T08:12:05Z</time>
      </trkpt>
      <trkpt lat="43.76901" lon="7.25183">
        <ele>693</ele>
        <time>2013-09-02T08:12:13Z</time>
      </trkpt>
      <trkpt lat="43.76896" lon="7.25195">
        <ele>693</ele>
        <time>2013-09-02T08:12:22Z</time>
      </trkpt>
      <trkpt lat="43.76891" lon="7.25185">
        <ele>688</ele>
        <time>2013-09-02T08:12:42Z</time>
      </trkpt>
      <trkpt lat="43.76894" lon="7.25173">
        <ele>688</ele>
        <time>2013-09-02T08:12:50Z</time>
      </trkpt>
      <trkpt lat="43.76894" lon="7.25161">
        <ele>688</ele>
        <time>2013-09-02T08:12:58Z</time>
      </trkpt>
      <trkpt lat="43.76896" lon="7.25148">
        <ele>688</ele>
        <time>2013-09-02T08:13:06Z</time>
      </trkpt>
      <trkpt lat="43.76898" lon="7.25135">
        <ele>688</ele>
        <time>2013-09-02T08:13:15Z</time>
      </trkpt>
      <trkpt lat="43.76898" lon="7.25122">
        <ele>681</ele>
        <time>2013-09-02T08:13:23Z</time>
      </trkpt>
      <trkpt lat="43.76898" lon="7.25109">
        <ele>681</ele>
        <time>2013-09-02T08:13:31Z</time>
      </trkpt>
      <trkpt lat="43.76898" lon="7.25097">
        <ele>681</ele>
        <time>2013-09-02T08:13:38Z</time>
      </trkpt>
      <trkpt lat="43.76896" lon="7.25083">
        <ele>681</ele>
        <time>2013-09-02T08:13:47Z</time>
      </trkpt>
      <trkpt lat="43.76896" lon="7.25071">
        <ele>681</ele>
        <time>2013-09-02T08:13:54Z</time>
      </trkpt>
      <trkpt lat="43.76896" lon="7.25057">
        <ele>681</ele>
        <time>2013-09-02T08:14:02Z</time>
      </trkpt>
      <trkpt lat="43.76894" lon="7.25044">
        <ele>681</ele>
        <time>2013-09-02T08:14:11Z</time>
      </trkpt>
      <trkpt lat="43.76886" lon="7.25038">
        <ele>681</ele>
        <time>2013-09-02T08:14:25Z</time>
      </trkpt>
      <trkpt lat="43.76876" lon="7.25039">
        <ele>675</ele>
        <time>2013-09-02T08:14:58Z</time>
      </trkpt>
      <trkpt lat="43.76867" lon="7.25043">
        <ele>675</ele>
        <time>2013-09-02T08:15:07Z</time>
      </trkpt>
      <trkpt lat="43.76858" lon="7.25044">
        <ele>675</ele>
        <time>2013-09-02T08:15:15Z</time>
      </trkpt>
      <trkpt lat="43.76849" lon="7.25048">
        <ele>675</ele>
        <time>2013-09-02T08:15:24Z</time>
      </trkpt>
      <trkpt lat="43.7684" lon="7.25051">
        <ele>675</ele>
        <time>2013-09-02T08:15:33Z</time>
      </trkpt>
      <trkpt lat="43.7683" lon="7.25051">
        <ele>675</ele>
        <time>2013-09-02T08:15:41Z</time>
      </trkpt>
      <trkpt lat="43.76822" lon="7.25046">
        <ele>675</ele>
        <time>2013-09-02T08:15:49Z</time>
      </trkpt>
      <trkpt lat="43.76812" lon="7.25043">
        <ele>670</ele>
        <time>2013-09-02T08:15:58Z</time>
      </trkpt>
      <trkpt lat="43.76805" lon="7.25035">
        <ele>670</ele>
        <time>2013-09-02T08:16:08Z</time>
      </trkpt>
      <trkpt lat="43.76797" lon="7.25029">
        <ele>670</ele>
        <time>2013-09-02T08:16:18Z</time>
      </trkpt>
      <trkpt lat="43.76787" lon="7.25031">
        <ele>670</ele>
        <time>2013-09-02T08:16:27Z</time>
      </trkpt>
      <trkpt lat="43.76778" lon="7.25036">
        <ele>670</ele>
        <time>2013-09-02T08:16:34Z</time>
      </trkpt>
      <trkpt lat="43.7677" lon="7.2504">
        <ele>670</ele>
        <time>2013-09-02T08:16:42Z</time>
      </trkpt>
      <trkpt lat="43.76761" lon="7.25043">
        <ele>670</ele>
        <time>2013-09-02T08:16:50Z</time>
      </trkpt>
      <trkpt lat="43.76752" lon="7.25046">
        <ele>663</ele>
        <time>2013-09-02T08:16:58Z</time>
      </trkpt>
      <trkpt lat="43.76743" lon="7.2505">
        <ele>663</ele>
        <time>2013-09-02T08:17:07Z</time>
      </trkpt>
      <trkpt lat="43.76735" lon="7.25055">
        <ele>663</ele>
        <time>2013-09-02T08:17:18Z</time>
      </trkpt>
      <trkpt lat="43.76726" lon="7.25053">
        <ele>663</ele>
        <time>2013-09-02T08:17:26Z</time>
      </trkpt>
      <trkpt lat="43.76716" lon="7.25052">
        <ele>657</ele>
        <time>2013-09-02T08:17:38Z</time>
      </trkpt>
      <trkpt lat="43.76707" lon="7.25054">
        <ele>657</ele>
        <time>2013-09-02T08:17:47Z</time>
      </trkpt>
      <trkpt lat="43.76698" lon="7.2505">
        <ele>657</ele>
        <time>2013-09-02T08:17:55Z</time>
      </trkpt>
      <trkpt lat="43.76689" lon="7.25048">
        <ele>657</ele>
        <time>2013-09-02T08:18:05Z</time>
      </trkpt>
      <trkpt lat="43.76682" lon="7.25056">
        <ele>657</ele>
        <time>2013-09-02T08:18:15Z</time>
      </trkpt>
      <trkpt lat="43.76677" lon="7.25068">
        <ele>657</ele>
        <time>2013-09-02T08:18:24Z</time>
      </trkpt>
      <trkpt lat="43.76672" lon="7.25079">
        <ele>652</ele>
        <time>2013-09-02T08:18:34Z</time>
      </trkpt>
      <trkpt lat="43.76667" lon="7.25089">
        <ele>652</ele>
        <time>2013-09-02T08:18:44Z</time>
      </trkpt>
      <trkpt lat="43.76657" lon="7.25091">
        <ele>645</ele>
        <time>2013-09-02T08:18:56Z</time>
      </trkpt>
      <trkpt lat="43.76648" lon="7.25091">
        <ele>645</ele>
        <time>2013-09-02T08:19:05Z</time>
      </trkpt>
      <trkpt lat="43.76637" lon="7.25092">
        <ele>645</ele>
        <time>2013-09-02T08:19:14Z</time>
      </trkpt>
      <trkpt lat="43.76627" lon="7.25095">
        <ele>645</ele>
        <time>2013-09-02T08:19:26Z</time>
      </trkpt>
      <trkpt lat="43.76618" lon="7.25095">
        <ele>645</ele>
        <time>2013-09-02T08:19:33Z</time>
      </trkpt>
      <trkpt lat="43.76608" lon="7.25097">
        <ele>645</ele>
        <time>2013-09-02T08:19:41Z</time>
      </trkpt>
      <trkpt lat="43.76599" lon="7.25099">
        <ele>645</ele>
        <time>2013-09-02T08:19:50Z</time>
      </trkpt>
      <trkpt lat="43.7659" lon="7.25102">
        <ele>645</ele>
        <time>2013-09-02T08:20:00Z</time>
      </trkpt>
      <trkpt lat="43.76582" lon="7.25106">
        <ele>645</ele>
        <time>2013-09-02T08:20:10Z</time>
      </trkpt>
      <trkpt lat="43.76573" lon="7.25109">
        <ele>645</ele>
        <time>2013-09-02T08:20:18Z</time>
      </trkpt>
      <trkpt lat="43.76564" lon="7.25114">
        <ele>645</ele>
        <time>2013-09-02T08:20:27Z</time>
      </trkpt>
      <trkpt lat="43.76556" lon="7.25117">
        <ele>645</ele>
        <time>2013-09-02T08:20:35Z</time>
      </trkpt>
      <trkpt lat="43.76547" lon="7.25125">
        <ele>645</ele>
        <time>2013-09-02T08:20:45Z</time>
      </trkpt>
      <trkpt lat="43.76538" lon="7.25129">
        <ele>635</ele>
        <time>2013-09-02T08:20:56Z</time>
      </trkpt>
      <trkpt lat="43.76528" lon="7.25129">
        <ele>635</ele>
        <time>2013-09-02T08:21:05Z</time>
      </trkpt>
      <trkpt lat="43.7652" lon="7.25125">
        <ele>635</ele>
        <time>2013-09-02T08:21:13Z</time>
      </trkpt>
      <trkpt lat="43.76511" lon="7.25119">
        <ele>635</ele>
        <time>2013-09-02T08:21:23Z</time>
      </trkpt>
      <trkpt lat="43.76502" lon="7.25117">
        <ele>635</ele>
        <time>2013-09-02T08:21:32Z</time>
      </trkpt>
      <trkpt lat="43.76493" lon="7.25111">
        <ele>635</ele>
        <time>2013-09-02T08:21:43Z</time>
      </trkpt>
      <trkpt lat="43.76484" lon="7.25108">
        <ele>635</ele>
        <time>2013-09-02T08:21:51Z</time>
      </trkpt>
      <trkpt lat="43.76475" lon="7.25108">
        <ele>635</ele>
        <time>2013-09-02T08:22:00Z</time>
      </trkpt>
      <trkpt lat="43.76467" lon="7.25112">
        <ele>635</ele>
        <time>2013-09-02T08:22:10Z</time>
      </trkpt>
      <trkpt lat="43.76457" lon="7.2511">
        <ele>635</ele>
        <time>2013-09-02T08:22:19Z</time>
      </trkpt>
      <trkpt lat="43.76448" lon="7.25112">
        <ele>642</ele>
        <time>2013-09-02T08:22:27Z</time>
      </trkpt>
      <trkpt lat="43.76441" lon="7.2512">
        <ele>634</ele>
        <time>2013-09-02T08:22:37Z</time>
      </trkpt>
      <trkpt lat="43.76432" lon="7.25122">
        <ele>634</ele>
        <time>2013-09-02T08:24:05Z</time>
      </trkpt>
      <trkpt lat="43.76423" lon="7.25122">
        <ele>634</ele>
        <time>2013-09-02T08:24:26Z</time>
      </trkpt>
      <trkpt lat="43.76415" lon="7.25128">
        <ele>624</ele>
        <time>2013-09-02T08:25:16Z</time>
      </trkpt>
      <trkpt lat="43.76407" lon="7.25134">
        <ele>624</ele>
        <time>2013-09-02T08:25:25Z</time>
      </trkpt>
      <trkpt lat="43.76398" lon="7.25138">
        <ele>624</ele>
        <time>2013-09-02T08:25:36Z</time>
      </trkpt>
      <trkpt lat="43.76391" lon="7.25146">
        <ele>624</ele>
        <time>2013-09-02T08:25:46Z</time>
      </trkpt>
      <trkpt lat="43.76382" lon="7.25152">
        <ele>624</ele>
        <time>2013-09-02T08:25:56Z</time>
      </trkpt>
      <trkpt lat="43.76373" lon="7.25157">
        <ele>624</ele>
        <time>2013-09-02T08:26:05Z</time>
      </trkpt>
      <trkpt lat="43.76368" lon="7.25167">
        <ele>624</ele>
        <time>2013-09-02T08:26:16Z</time>
      </trkpt>
      <trkpt lat="43.7636" lon="7.25173">
        <ele>624</ele>
        <time>2013-09-02T08:26:24Z</time>
      </trkpt>
      <trkpt lat="43.76355" lon="7.25184">
        <ele>624</ele>
        <time>2013-09-02T08:26:32Z</time>
      </trkpt>
      <trkpt lat="43.76349" lon="7.25195">
        <ele>624</ele>
        <time>2013-09-02T08:26:42Z</time>
      </trkpt>
      <trkpt lat="43.7634" lon="7.25198">
        <ele>624</ele>
        <time>2013-09-02T08:26:52Z</time>
      </trkpt>
      <trkpt lat="43.76331" lon="7.25199">
        <ele>616</ele>
        <time>2013-09-02T08:27:04Z</time>
      </trkpt>
      <trkpt lat="43.76323" lon="7.25194">
        <ele>616</ele>
        <time>2013-09-02T08:27:14Z</time>
      </trkpt>
      <trkpt lat="43.76313" lon="7.25196">
        <ele>616</ele>
        <time>2013-09-02T08:27:25Z</time>
      </trkpt>
      <trkpt lat="43.76304" lon="7.252">
        <ele>616</ele>
        <time>2013-09-02T08:27:34Z</time>
      </trkpt>
      <trkpt lat="43.76295" lon="7.25199">
        <ele>611</ele>
        <time>2013-09-02T08:27:44Z</time>
      </trkpt>
      <trkpt lat="43.76286" lon="7.25201">
        <ele>611</ele>
        <time>2013-09-02T08:27:54Z</time>
      </trkpt>
      <trkpt lat="43.76276" lon="7.25203">
        <ele>611</ele>
        <time>2013-09-02T08:28:05Z</time>
      </trkpt>
      <trkpt lat="43.76266" lon="7.25205">
        <ele>611</ele>
        <time>2013-09-02T08:28:16Z</time>
      </trkpt>
      <trkpt lat="43.76256" lon="7.25207">
        <ele>611</ele>
        <time>2013-09-02T08:28:27Z</time>
      </trkpt>
      <trkpt lat="43.76246" lon="7.2521">
        <ele>604</ele>
        <time>2013-09-02T08:28:37Z</time>
      </trkpt>
      <trkpt lat="43.76237" lon="7.25212">
        <ele>604</ele>
        <time>2013-09-02T08:28:47Z</time>
      </trkpt>
      <trkpt lat="43.76228" lon="7.25212">
        <ele>604</ele>
        <time>2013-09-02T08:28:57Z</time>
      </trkpt>
      <trkpt lat="43.76219" lon="7.25212">
        <ele>604</ele>
        <time>2013-09-02T08:29:05Z</time>
      </trkpt>
      <trkpt lat="43.76209" lon="7.25214">
        <ele>604</ele>
        <time>2013-09-02T08:29:15Z</time>
      </trkpt>
      <trkpt lat="43.76201" lon="7.25218">
        <ele>604</ele>
        <time>2013-09-02T08:29:23Z</time>
      </trkpt>
      <trkpt lat="43.76192" lon="7.2522">
        <ele>604</ele>
        <time>2013-09-02T08:29:35Z</time>
      </trkpt>
      <trkpt lat="43.76184" lon="7.25226">
        <ele>597</ele>
        <time>2013-09-02T08:29:44Z</time>
      </trkpt>
      <trkpt lat="43.76174" lon="7.25229">
        <ele>597</ele>
        <time>2013-09-02T08:29:52Z</time>
      </trkpt>
      <trkpt lat="43.76165" lon="7.25235">
        <ele>597</ele>
        <time>2013-09-02T08:30:02Z</time>
      </trkpt>
      <trkpt lat="43.76157" lon="7.25241">
        <ele>597</ele>
        <time>2013-09-02T08:30:12Z</time>
      </trkpt>
      <trkpt lat="43.76148" lon="7.25246">
        <ele>597</ele>
        <time>2013-09-02T08:30:22Z</time>
      </trkpt>
      <trkpt lat="43.7614" lon="7.2525">
        <ele>597</ele>
        <time>2013-09-02T08:30:34Z</time>
      </trkpt>
      <trkpt lat="43.76131" lon="7.25256">
        <ele>597</ele>
        <time>2013-09-02T08:30:45Z</time>
      </trkpt>
      <trkpt lat="43.76122" lon="7.25261">
        <ele>597</ele>
        <time>2013-09-02T08:30:56Z</time>
      </trkpt>
      <trkpt lat="43.76114" lon="7.25267">
        <ele>590</ele>
        <time>2013-09-02T08:31:05Z</time>
      </trkpt>
      <trkpt lat="43.76105" lon="7.25271">
        <ele>590</ele>
        <time>2013-09-02T08:31:13Z</time>
      </trkpt>
      <trkpt lat="43.76099" lon="7.25281">
        <ele>590</ele>
        <time>2013-09-02T08:31:23Z</time>
      </trkpt>
      <trkpt lat="43.7609" lon="7.25281">
        <ele>584</ele>
        <time>2013-09-02T08:31:33Z</time>
      </trkpt>
      <trkpt lat="43.76082" lon="7.25285">
        <ele>584</ele>
        <time>2013-09-02T08:31:43Z</time>
      </trkpt>
      <trkpt lat="43.76073" lon="7.25289">
        <ele>584</ele>
        <time>2013-09-02T08:31:51Z</time>
      </trkpt>
      <trkpt lat="43.76064" lon="7.25292">
        <ele>584</ele>
        <time>2013-09-02T08:31:59Z</time>
      </trkpt>
      <trkpt lat="43.76055" lon="7.25295">
        <ele>579</ele>
        <time>2013-09-02T08:32:08Z</time>
      </trkpt>
      <trkpt lat="43.76046" lon="7.25299">
        <ele>579</ele>
        <time>2013-09-02T08:32:17Z</time>
      </trkpt>
      <trkpt lat="43.76039" lon="7.25308">
        <ele>579</ele>
        <time>2013-09-02T08:32:29Z</time>
      </trkpt>
      <trkpt lat="43.7603" lon="7.25308">
        <ele>579</ele>
        <time>2013-09-02T08:32:40Z</time>
      </trkpt>
      <trkpt lat="43.76021" lon="7.25311">
        <ele>579</ele>
        <time>2013-09-02T08:32:49Z</time>
      </trkpt>
      <trkpt lat="43.76012" lon="7.25316">
        <ele>579</ele>
        <time>2013-09-02T08:32:59Z</time>
      </trkpt>
      <trkpt lat="43.76004" lon="7.25322">
        <ele>573</ele>
        <time>2013-09-02T08:33:09Z</time>
      </trkpt>
      <trkpt lat="43.75995" lon="7.25327">
        <ele>573</ele>
        <time>2013-09-02T08:33:20Z</time>
      </trkpt>
      <trkpt lat="43.75986" lon="7.25333">
        <ele>573</ele>
        <time>2013-09-02T08:33:30Z</time>
      </trkpt>
      <trkpt lat="43.75978" lon="7.25338">
        <ele>573</ele>
        <time>2013-09-02T08:33:39Z</time>
      </trkpt>
      <trkpt lat="43.75968" lon="7.25342">
        <ele>573</ele>
        <time>2013-09-02T08:33:48Z</time>
      </trkpt>
      <trkpt lat="43.75961" lon="7.25348">
        <ele>573</ele>
        <time>2013-09-02T08:33:56Z</time>
      </trkpt>
      <trkpt lat="43.75952" lon="7.25352">
        <ele>568</ele>
        <time>2013-09-02T08:34:05Z</time>
      </trkpt>
      <trkpt lat="43.75944" lon="7.25357">
        <ele>568</ele>
        <time>2013-09-02T08:34:14Z</time>
      </trkpt>
      <trkpt lat="43.75935" lon="7.25364">
        <ele>568</ele>
        <time>2013-09-02T08:34:23Z</time>
      </trkpt>
      <trkpt lat="43.75927" lon="7.25367">
        <ele>568</ele>
        <time>2013-09-02T08:34:32Z</time>
      </trkpt>
      <trkpt lat="43.75918" lon="7.25373">
        <ele>568</ele>
        <time>2013-09-02T08:35:01Z</time>
      </trkpt>
      <trkpt lat="43.75912" lon="7.25382">
        <ele>563</ele>
        <time>2013-09-02T08:35:11Z</time>
      </trkpt>
      <trkpt lat="43.75905" lon="7.2539">
        <ele>563</ele>
        <time>2013-09-02T08:35:19Z</time>
      </trkpt>
      <trkpt lat="43.75896" lon="7.25395">
        <ele>563</ele>
        <time>2013-09-02T08:35:28Z</time>
      </trkpt>
      <trkpt lat="43.75889" lon="7.25403">
        <ele>563</ele>
        <time>2013-09-02T08:35:36Z</time>
      </trkpt>
      <trkpt lat="43.75881" lon="7.2541">
        <ele>563</ele>
        <time>2013-09-02T08:35:44Z</time>
      </trkpt>
      <trkpt lat="43.75875" lon="7.25419">
        <ele>563</ele>
        <time>2013-09-02T08:35:52Z</time>
      </trkpt>
      <trkpt lat="43.75866" lon="7.25425">
        <ele>563</ele>
        <time>2013-09-02T08:36:01Z</time>
      </trkpt>
      <trkpt lat="43.75858" lon="7.25429">
        <ele>563</ele>
        <time>2013-09-02T08:36:11Z</time>
      </trkpt>
      <trkpt lat="43.75848" lon="7.25429">
        <ele>563</ele>
        <time>2013-09-02T08:36:24Z</time>
      </trkpt>
      <trkpt lat="43.7584" lon="7.25435">
        <ele>554</ele>
        <time>2013-09-02T08:36:35Z</time>
      </trkpt>
      <trkpt lat="43.7583" lon="7.25438">
        <ele>554</ele>
        <time>2013-09-02T08:36:45Z</time>
      </trkpt>
      <trkpt lat="43.75823" lon="7.25444">
        <ele>554</ele>
        <time>2013-09-02T08:36:54Z</time>
      </trkpt>
      <trkpt lat="43.75814" lon="7.2545">
        <ele>554</ele>
        <time>2013-09-02T08:37:05Z</time>
      </trkpt>
      <trkpt lat="43.75805" lon="7.25454">
        <ele>548</ele>
        <time>2013-09-02T08:37:15Z</time>
      </trkpt>
      <trkpt lat="43.75796" lon="7.25458">
        <ele>548</ele>
        <time>2013-09-02T08:37:25Z</time>
      </trkpt>
      <trkpt lat="43.75787" lon="7.25463">
        <ele>548</ele>
        <time>2013-09-02T08:37:35Z</time>
      </trkpt>
      <trkpt lat="43.7578" lon="7.2547">
        <ele>548</ele>
        <time>2013-09-02T08:37:44Z</time>
      </trkpt>
      <trkpt lat="43.75773" lon="7.25478">
        <ele>548</ele>
        <time>2013-09-02T08:37:53Z</time>
      </trkpt>
      <trkpt lat="43.75765" lon="7.25485">
        <ele>548</ele>
        <time>2013-09-02T08:38:02Z</time>
      </trkpt>
      <trkpt lat="43.75757" lon="7.2549">
        <ele>548</ele>
        <time>2013-09-02T08:38:11Z</time>
      </trkpt>
      <trkpt lat="43.75748" lon="7.25495">
        <ele>542</ele>
        <time>2013-09-02T08:38:20Z</time>
      </trkpt>
      <trkpt lat="43.75739" lon="7.25497">
        <ele>542</ele>
        <time>2013-09-02T08:38:30Z</time>
      </trkpt>
      <trkpt lat="43.75731" lon="7.255">
        <ele>542</ele>
        <time>2013-09-02T08:38:39Z</time>
      </trkpt>
      <trkpt lat="43.75722" lon="7.25504">
        <ele>542</ele>
        <time>2013-09-02T08:38:47Z</time>
      </trkpt>
      <trkpt lat="43.75713" lon="7.25508">
        <ele>542</ele>
        <time>2013-09-02T08:38:55Z</time>
      </trkpt>
      <trkpt lat="43.75704" lon="7.25515">
        <ele>542</ele>
        <time>2013-09-02T08:39:05Z</time>
      </trkpt>
      <trkpt lat="43.75695" lon="7.25517">
        <ele>542</ele>
        <time>2013-09-02T08:39:17Z</time>
      </trkpt>
      <trkpt lat="43.75686" lon="7.25522">
        <ele>542</ele>
        <time>2013-09-02T08:39:26Z</time>
      </trkpt>
      <trkpt lat="43.75677" lon="7.25528">
        <ele>537</ele>
        <time>2013-09-02T08:39:35Z</time>
      </trkpt>
      <trkpt lat="43.75669" lon="7.25534">
        <ele>537</ele>
        <time>2013-09-02T08:39:44Z</time>
      </trkpt>
      <trkpt lat="43.75661" lon="7.25538">
        <ele>537</ele>
        <time>2013-09-02T08:39:54Z</time>
      </trkpt>
      <trkpt lat="43.75651" lon="7.25539">
        <ele>537</ele>
        <time>2013-09-02T08:40:04Z</time>
      </trkpt>
      <trkpt lat="43.75643" lon="7.25545">
        <ele>531</ele>
        <time>2013-09-02T08:40:13Z</time>
      </trkpt>
      <trkpt lat="43.75635" lon="7.25552">
        <ele>531</ele>
        <time>2013-09-02T08:40:23Z</time>
      </trkpt>
      <trkpt lat="43.75625" lon="7.25554">
        <ele>531</ele>
        <time>2013-09-02T08:40:32Z</time>
      </trkpt>
      <trkpt lat="43.75618" lon="7.2556">
        <ele>531</ele>
        <time>2013-09-02T08:40:40Z</time>
      </trkpt>
      <trkpt lat="43.7561" lon="7.25567">
        <ele>531</ele>
        <time>2013-09-02T08:40:49Z</time>
      </trkpt>
      <trkpt lat="43.75601" lon="7.2557">
        <ele>531</ele>
        <time>2013-09-02T08:41:00Z</time>
      </trkpt>
      <trkpt lat="43.75593" lon="7.25574">
        <ele>531</ele>
        <time>2013-09-02T08:41:09Z</time>
      </trkpt>
      <trkpt lat="43.75584" lon="7.25576">
        <ele>524</ele>
        <time>2013-09-02T08:41:21Z</time>
      </trkpt>
      <trkpt lat="43.75575" lon="7.25582">
        <ele>524</ele>
        <time>2013-09-02T08:41:30Z</time>
      </trkpt>
      <trkpt lat="43.75566" lon="7.25586">
        <ele>524</ele>
        <time>2013-09-02T08:41:40Z</time>
      </trkpt>
      <trkpt lat="43.75558" lon="7.25592">
        <ele>524</ele>
        <time>2013-09-02T08:41:49Z</time>
      </trkpt>
      <trkpt lat="43.7555" lon="7.256">
        <ele>524</ele>
        <time>2013-09-02T08:41:58Z</time>
      </trkpt>
      <trkpt lat="43.75543" lon="7.25609">
        <ele>524</ele>
        <time>2013-09-02T08:42:07Z</time>
      </trkpt>
      <trkpt lat="43.75538" lon="7.2562">
        <ele>524</ele>
        <time>2013-09-02T08:42:16Z</time>
      </trkpt>
      <trkpt lat="43.75533" lon="7.25631">
        <ele>516</ele>
        <time>2013-09-02T08:42:26Z</time>
      </trkpt>
      <trkpt lat="43.7553" lon="7.25643">
        <ele>516</ele>
        <time>2013-09-02T08:42:36Z</time>
      </trkpt>
      <trkpt lat="43.7553" lon="7.25656">
        <ele>516</ele>
        <time>2013-09-02T08:42:44Z</time>
      </trkpt>
      <trkpt lat="43.75529" lon="7.25668">
        <ele>516</ele>
        <time>2013-09-02T08:42:52Z</time>
      </trkpt>
      <trkpt lat="43.75528" lon="7.25681">
        <ele>516</ele>
        <time>2013-09-02T08:43:01Z</time>
      </trkpt>
      <trkpt lat="43.75526" lon="7.25693">
        <ele>516</ele>
        <time>2013-09-02T08:43:11Z</time>
      </trkpt>
      <trkpt lat="43.75524" lon="7.25705">
        <ele>516</ele>
        <time>2013-09-02T08:43:20Z</time>
      </trkpt>
      <trkpt lat="43.75517" lon="7.25714">
        <ele>508</ele>
        <time>2013-09-02T08:43:33Z</time>
      </trkpt>
      <trkpt lat="43.75509" lon="7.25718">
        <ele>508</ele>
        <time>2013-09-02T08:43:43Z</time>
      </trkpt>
      <trkpt lat="43.75502" lon="7.25726">
        <ele>508</ele>
        <time>2013-09-02T08:43:57Z</time>
      </trkpt>
      <trkpt lat="43.75494" lon="7.25735">
        <ele>501</ele>
        <time>2013-09-02T08:44:08Z</time>
      </trkpt>
      <trkpt lat="43.75492" lon="7.25746">
        <ele>501</ele>
        <time>2013-09-02T08:44:16Z</time>
      </trkpt>
      <trkpt lat="43.75489" lon="7.25759">
        <ele>501</ele>
        <time>2013-09-02T08:44:24Z</time>
      </trkpt>
      <trkpt lat="43.75486" lon="7.25771">
        <ele>501</ele>
        <time>2013-09-02T08:44:32Z</time>
      </trkpt>
      <trkpt lat="43.75481" lon="7.2578">
        <ele>501</ele>
        <time>2013-09-02T08:44:39Z</time>
      </trkpt>
      <trkpt lat="43.75472" lon="7.25783">
        <ele>501</ele>
        <time>2013-09-02T08:44:48Z</time>
      </trkpt>
      <trkpt lat="43.75463" lon="7.25788">
        <ele>501</ele>
        <time>2013-09-02T08:44:56Z</time>
      </trkpt>
      <trkpt lat="43.75455" lon="7.25794">
        <ele>501</ele>
        <time>2013-09-02T08:45:04Z</time>
      </trkpt>
      <trkpt lat="43.75446" lon="7.25797">
        <ele>501</ele>
        <time>2013-09-02T08:45:13Z</time>
      </trkpt>
      <trkpt lat="43.75437" lon="7.258">
        <ele>501</ele>
        <time>2013-09-02T08:45:22Z</time>
      </trkpt>
      <trkpt lat="43.75428" lon="7.25799">
        <ele>501</ele>
        <time>2013-09-02T08:45:31Z</time>
      </trkpt>
      <trkpt lat="43.75419" lon="7.25802">
        <ele>501</ele>
        <time>2013-09-02T08:45:41Z</time>
      </trkpt>
      <trkpt lat="43.7541" lon="7.25806">
        <ele>501</ele>
        <time>2013-09-02T08:45:50Z</time>
      </trkpt>
      <trkpt lat="43.75401" lon="7.25804">
        <ele>501</ele>
        <time>2013-09-02T08:45:59Z</time>
      </trkpt>
      <trkpt lat="43.75392" lon="7.258">
        <ele>501</ele>
        <time>2013-09-02T08:46:08Z</time>
      </trkpt>
      <trkpt lat="43.75382" lon="7.25798">
        <ele>501</ele>
        <time>2013-09-02T08:46:17Z</time>
      </trkpt>
      <trkpt lat="43.75373" lon="7.25793">
        <ele>501</ele>
        <time>2013-09-02T08:46:26Z</time>
      </trkpt>
      <trkpt lat="43.75366" lon="7.25785">
        <ele>501</ele>
        <time>2013-09-02T08:46:38Z</time>
      </trkpt>
      <trkpt lat="43.75356" lon="7.25784">
        <ele>501</ele>
        <time>2013-09-02T08:46:48Z</time>
      </trkpt>
      <trkpt lat="43.75347" lon="7.25786">
        <ele>495</ele>
        <time>2013-09-02T08:46:57Z</time>
      </trkpt>
      <trkpt lat="43.75338" lon="7.25791">
        <ele>495</ele>
        <time>2013-09-02T08:47:05Z</time>
      </trkpt>
      <trkpt lat="43.75332" lon="7.25802">
        <ele>495</ele>
        <time>2013-09-02T08:47:13Z</time>
      </trkpt>
      <trkpt lat="43.75326" lon="7.25812">
        <ele>495</ele>
        <time>2013-09-02T08:47:22Z</time>
      </trkpt>
      <trkpt lat="43.75318" lon="7.25815">
        <ele>495</ele>
        <time>2013-09-02T08:47:31Z</time>
      </trkpt>
      <trkpt lat="43.75309" lon="7.25818">
        <ele>495</ele>
        <time>2013-09-02T08:47:38Z</time>
      </trkpt>
      <trkpt lat="43.753" lon="7.25824">
        <ele>495</ele>
        <time>2013-09-02T08:47:47Z</time>
      </trkpt>
      <trkpt lat="43.75291" lon="7.25828">
        <ele>495</ele>
        <time>2013-09-02T08:47:56Z</time>
      </trkpt>
      <trkpt lat="43.75282" lon="7.25833">
        <ele>495</ele>
        <time>2013-09-02T08:48:05Z</time>
      </trkpt>
      <trkpt lat="43.75272" lon="7.25836">
        <ele>495</ele>
        <time>2013-09-02T08:48:14Z</time>
      </trkpt>
      <trkpt lat="43.75263" lon="7.25842">
        <ele>495</ele>
        <time>2013-09-02T08:48:24Z</time>
      </trkpt>
      <trkpt lat="43.75256" lon="7.2585">
        <ele>495</ele>
        <time>2013-09-02T08:48:33Z</time>
      </trkpt>
      <trkpt lat="43.75248" lon="7.25853">
        <ele>495</ele>
        <time>2013-09-02T08:48:43Z</time>
      </trkpt>
      <trkpt lat="43.75238" lon="7.25852">
        <ele>495</ele>
        <time>2013-09-02T08:48:52Z</time>
      </trkpt>
      <trkpt lat="43.75229" lon="7.25855">
        <ele>495</ele>
        <time>2013-09-02T08:49:00Z</time>
      </trkpt>
      <trkpt lat="43.75219" lon="7.25857">
        <ele>495</ele>
        <time>2013-09-02T08:49:08Z</time>
      </trkpt>
      <trkpt lat="43.7521" lon="7.25858">
        <ele>495</ele>
        <time>2013-09-02T08:49:16Z</time>
      </trkpt>
      <trkpt lat="43.75201" lon="7.25864">
        <ele>495</ele>
        <time>2013-09-02T08:49:25Z</time>
      </trkpt>
      <trkpt lat="43.75192" lon="7.25865">
        <ele>495</ele>
        <time>2013-09-02T08:49:34Z</time>
      </trkpt>
      <trkpt lat="43.75183" lon="7.25868">
        <ele>495</ele>
        <time>2013-09-02T08:49:42Z</time>
      </trkpt>
      <trkpt lat="43.75174" lon="7.25873">
        <ele>488</ele>
        <time>2013-09-02T08:49:51Z</time>
      </trkpt>
      <trkpt lat="43.75165" lon="7.25873">
        <ele>488</ele>
        <time>2013-09-02T08:50:01Z</time>
      </trkpt>
      <trkpt lat="43.75155" lon="7.2587">
        <ele>488</ele>
        <time>2013-09-02T08:50:10Z</time>
      </trkpt>
      <trkpt lat="43.75146" lon="7.25871">
        <ele>488</ele>
        <time>2013-09-02T08:50:18Z</time>
      </trkpt>
      <trkpt lat="43.75137" lon="7.25871">
        <ele>488</ele>
        <time>2013-09-02T08:50:29Z</time>
      </trkpt>
      <trkpt lat="43.75127" lon="7.25871">
        <ele>488</ele>
        <time>2013-09-02T08:50:38Z</time>
      </trkpt>
      <trkpt lat="43.75118" lon="7.25871">
        <ele>482</ele>
        <time>2013-09-02T08:50:46Z</time>
      </trkpt>
      <trkpt lat="43.75109" lon="7.25869">
        <ele>482</ele>
        <time>2013-09-02T08:50:54Z</time>
      </trkpt>
      <trkpt lat="43.751" lon="7.25872">
        <ele>482</ele>
        <time>2013-09-02T08:51:02Z</time>
      </trkpt>
      <trkpt lat="43.7509" lon="7.25873">
        <ele>482</ele>
        <time>2013-09-02T08:51:11Z</time>
      </trkpt>
      <trkpt lat="43.75082" lon="7.25867">
        <ele>482</ele>
        <time>2013-09-02T08:51:20Z</time>
      </trkpt>
      <trkpt lat="43.75074" lon="7.2586">
        <ele>482</ele>
        <time>2013-09-02T08:51:32Z</time>
      </trkpt>
      <trkpt lat="43.75064" lon="7.25861">
        <ele>482</ele>
        <time>2013-09-02T08:51:41Z</time>
      </trkpt>
      <trkpt lat="43.75055" lon="7.2586">
        <ele>482</ele>
        <time>2013-09-02T08:51:50Z</time>
      </trkpt>
      <trkpt lat="43.75045" lon="7.25859">
        <ele>476</ele>
        <time>2013-09-02T08:51:58Z</time>
      </trkpt>
      <trkpt lat="43.75036" lon="7.25857">
        <ele>476</ele>
        <time>2013-09-02T08:52:06Z</time>
      </trkpt>
      <trkpt lat="43.75027" lon="7.25858">
        <ele>476</ele>
        <time>2013-09-02T08:52:16Z</time>
      </trkpt>
      <trkpt lat="43.75017" lon="7.25854">
        <ele>476</ele>
        <time>2013-09-02T08:52:26Z</time>
      </trkpt>
      <trkpt lat="43.75008" lon="7.2585">
        <ele>476</ele>
        <time>2013-09-02T08:52:35Z</time>
      </trkpt>
      <trkpt lat="43.75" lon="7.25846">
        <ele>476</ele>
        <time>2013-09-02T08:52:43Z</time>
      </trkpt>
      <trkpt lat="43.74991" lon="7.2585">
        <ele>476</ele>
        <time>2013-09-02T08:52:51Z</time>
      </trkpt>
      <trkpt lat="43.74982" lon="7.25852">
        <ele>476</ele>
        <time>2013-09-02T08:52:59Z</time>
      </trkpt>
      <trkpt lat="43.74973" lon="7.25851">
        <ele>476</ele>
        <time>2013-09-02T08:53:09Z</time>
      </trkpt>
      <trkpt lat="43.74966" lon="7.25841">
        <ele>476</ele>
        <time>2013-09-02T08:53:19Z</time>
      </trkpt>
      <trkpt lat="43.74955" lon="7.25839">
        <ele>476</ele>
        <time>2013-09-02T08:53:29Z</time>
      </trkpt>
      <trkpt lat="43.74946" lon="7.25838">
        <ele>476</ele>
        <time>2013-09-02T08:53:37Z</time>
      </trkpt>
      <trkpt lat="43.74937" lon="7.25836">
        <ele>476</ele>
        <time>2013-09-02T08:53:45Z</time>
      </trkpt>
      <trkpt lat="43.74927" lon="7.25837">
        <ele>476</ele>
        <time>2013-09-02T08:53:55Z</time>
      </trkpt>
      <trkpt lat="43.74918" lon="7.2584">
        <ele>476</ele>
        <time>2013-09-02T08:54:04Z</time>
      </trkpt>
      <trkpt lat="43.74909" lon="7.25841">
        <ele>476</ele>
        <time>2013-09-02T08:54:13Z</time>
      </trkpt>
      <trkpt lat="43.74899" lon="7.25842">
        <ele>476</ele>
        <time>2013-09-02T08:54:21Z</time>
      </trkpt>
      <trkpt lat="43.7489" lon="7.25841">
        <ele>476</ele>
        <time>2013-09-02T08:54:30Z</time>
      </trkpt>
      <trkpt lat="43.7488" lon="7.2584">
        <ele>476</ele>
        <time>2013-09-02T08:54:39Z</time>
      </trkpt>
      <trkpt lat="43.74871" lon="7.25841">
        <ele>476</ele>
        <time>2013-09-02T08:54:48Z</time>
      </trkpt>
      <trkpt lat="43.74862" lon="7.25839">
        <ele>471</ele>
        <time>2013-09-02T08:54:57Z</time>
      </trkpt>
      <trkpt lat="43.74852" lon="7.25841">
        <ele>471</ele>
        <time>2013-09-02T08:55:06Z</time>
      </trkpt>
      <trkpt lat="43.74843" lon="7.25841">
        <ele>471</ele>
        <time>2013-09-02T08:55:15Z</time>
      </trkpt>
      <trkpt lat="43.74834" lon="7.25839">
        <ele>471</ele>
        <time>2013-09-02T08:55:23Z</time>
      </trkpt>
      <trkpt lat="43.74824" lon="7.2584">
        <ele>471</ele>
        <time>2013-09-02T08:55:31Z</time>
      </trkpt>
      <trkpt lat="43.74815" lon="7.2584">
        <ele>471</ele>
        <time>2013-09-02T08:55:39Z</time>
      </trkpt>
      <trkpt lat="43.74806" lon="7.25838">
        <ele>471</ele>
        <time>2013-09-02T08:55:47Z</time>
      </trkpt>
      <trkpt lat="43.74796" lon="7.2584">
        <ele>471</ele>
        <time>2013-09-02T08:55:57Z</time>
      </trkpt>
      <trkpt lat="43.74787" lon="7.25842">
        <ele>471</ele>
        <time>2013-09-02T08:56:07Z</time>
      </trkpt>
      <trkpt lat="43.74778" lon="7.25845">
        <ele>471</ele>
        <time>2013-09-02T08:56:18Z</time>
      </trkpt>
      <trkpt lat="43.74768" lon="7.25842">
        <ele>471</ele>
        <time>2013-09-02T08:56:27Z</time>
      </trkpt>
      <trkpt lat="43.74759" lon="7.25846">
        <ele>471</ele>
        <time>2013-09-02T08:56:35Z</time>
      </trkpt>
      <trkpt lat="43.74751" lon="7.25853">
        <ele>471</ele>
        <time>2013-09-02T08:56:43Z</time>
      </trkpt>
      <trkpt lat="43.74744" lon="7.25859">
        <ele>471</ele>
        <time>2013-09-02T08:56:51Z</time>
      </trkpt>
      <trkpt lat="43.74735" lon="7.25866">
        <ele>471</ele>
        <time>2013-09-02T08:57:01Z</time>
      </trkpt>
      <trkpt lat="43.74727" lon="7.2587">
        <ele>471</ele>
        <time>2013-09-02T08:57:09Z</time>
      </trkpt>
      <trkpt lat="43.74718" lon="7.25876">
        <ele>463</ele>
        <time>2013-09-02T08:57:25Z</time>
      </trkpt>
      <trkpt lat="43.74709" lon="7.25878">
        <ele>457</ele>
        <time>2013-09-02T08:57:36Z</time>
      </trkpt>
      <trkpt lat="43.74708" lon="7.25891">
        <ele>457</ele>
        <time>2013-09-02T08:57:50Z</time>
      </trkpt>
      <trkpt lat="43.74698" lon="7.25887">
        <ele>457</ele>
        <time>2013-09-02T08:58:00Z</time>
      </trkpt>
      <trkpt lat="43.74689" lon="7.25891">
        <ele>457</ele>
        <time>2013-09-02T08:58:20Z</time>
      </trkpt>
      <trkpt lat="43.74681" lon="7.25885">
        <ele>457</ele>
        <time>2013-09-02T08:58:44Z</time>
      </trkpt>
      <trkpt lat="43.74682" lon="7.25871">
        <ele>457</ele>
        <time>2013-09-02T08:58:54Z</time>
      </trkpt>
      <trkpt lat="43.74674" lon="7.25865">
        <ele>450</ele>
        <time>2013-09-02T08:59:02Z</time>
      </trkpt>
      <trkpt lat="43.74666" lon="7.25859">
        <ele>450</ele>
        <time>2013-09-02T08:59:10Z</time>
      </trkpt>
      <trkpt lat="43.74658" lon="7.25852">
        <ele>450</ele>
        <time>2013-09-02T08:59:18Z</time>
      </trkpt>
      <trkpt lat="43.74651" lon="7.25845">
        <ele>450</ele>
        <time>2013-09-02T08:59:28Z</time>
      </trkpt>
      <trkpt lat="43.74642" lon="7.2585">
        <ele>450</ele>
        <time>2013-09-02T08:59:37Z</time>
      </trkpt>
      <trkpt lat="43.74634" lon="7.25855">
        <ele>450</ele>
        <time>2013-09-02T08:59:45Z</time>
      </trkpt>
      <trkpt lat="43.74625" lon="7.2586">
        <ele>450</ele>
        <time>2013-09-02T08:59:54Z</time>
      </trkpt>
      <trkpt lat="43.74617" lon="7.25866">
        <ele>450</ele>
        <time>2013-09-02T09:00:03Z</time>
      </trkpt>
      <trkpt lat="43.74608" lon="7.25872">
        <ele>445</ele>
        <time>2013-09-02T09:00:15Z</time>
      </trkpt>
      <trkpt lat="43.746" lon="7.25876">
        <ele>445</ele>
        <time>2013-09-02T09:00:28Z</time>
      </trkpt>
      <trkpt lat="43.74591" lon="7.25874">
        <ele>445</ele>
        <time>2013-09-02T09:02:48Z</time>
      </trkpt>
      <trkpt lat="43.74582" lon="7.25872">
        <ele>437</ele>
        <time>2013-09-02T09:03:02Z</time>
      </trkpt>
      <trkpt lat="43.74576" lon="7.25862">
        <ele>437</ele>
        <time>2013-09-02T09:03:16Z</time>
      </trkpt>
      <trkpt lat="43.74574" lon="7.25849">
        <ele>437</ele>
        <time>2013-09-02T09:03:29Z</time>
      </trkpt>
      <trkpt lat="43.74567" lon="7.2584">
        <ele>431</ele>
        <time>2013-09-02T09:03:48Z</time>
      </trkpt>
      <trkpt lat="43.74566" lon="7.25827">
        <ele>431</ele>
        <time>2013-09-02T09:04:03Z</time>
      </trkpt>
      <trkpt lat="43.74564" lon="7.25814">
        <ele>431</ele>
        <time>2013-09-02T09:04:18Z</time>
      </trkpt>
      <trkpt lat="43.74563" lon="7.25801">
        <ele>422</ele>
        <time>2013-09-02T09:04:33Z</time>
      </trkpt>
      <trkpt lat="43.74564" lon="7.25788">
        <ele>422</ele>
        <time>2013-09-02T09:04:49Z</time>
      </trkpt>
      <trkpt lat="43.74559" lon="7.25779">
        <ele>417</ele>
        <time>2013-09-02T09:05:05Z</time>
      </trkpt>
      <trkpt lat="43.74554" lon="7.25767">
        <ele>417</ele>
        <time>2013-09-02T09:05:20Z</time>
      </trkpt>
      <trkpt lat="43.74548" lon="7.25758">
        <ele>412</ele>
        <time>2013-09-02T09:05:33Z</time>
      </trkpt>
      <trkpt lat="43.74544" lon="7.25745">
        <ele>412</ele>
        <time>2013-09-02T09:05:48Z</time>
      </trkpt>
      <trkpt lat="43.7454" lon="7.25734">
        <ele>412</ele>
        <time>2013-09-02T09:06:01Z</time>
      </trkpt>
      <trkpt lat="43.74535" lon="7.25724">
        <ele>406</ele>
        <time>2013-09-02T09:06:13Z</time>
      </trkpt>
      <trkpt lat="43.74527" lon="7.25716">
        <ele>406</ele>
        <time>2013-09-02T09:06:26Z</time>
      </trkpt>
      <trkpt lat="43.74518" lon="7.25713">
        <ele>406</ele>
        <time>2013-09-02T09:06:38Z</time>
      </trkpt>
      <trkpt lat="43.74509" lon="7.2571">
        <ele>399</ele>
        <time>2013-09-02T09:06:48Z</time>
      </trkpt>
      <trkpt lat="43.74503" lon="7.257">
        <ele>399</ele>
        <time>2013-09-02T09:06:58Z</time>
      </trkpt>
      <trkpt lat="43.74494" lon="7.25699">
        <ele>399</ele>
        <time>2013-09-02T09:07:11Z</time>
      </trkpt>
      <trkpt lat="43.74484" lon="7.25696">
        <ele>399</ele>
        <time>2013-09-02T09:07:22Z</time>
      </trkpt>
      <trkpt lat="43.74477" lon="7.2569">
        <ele>399</ele>
        <time>2013-09-02T09:07:32Z</time>
      </trkpt>
      <trkpt lat="43.74468" lon="7.25684">
        <ele>393</ele>
        <time>2013-09-02T09:07:44Z</time>
      </trkpt>
      <trkpt lat="43.74459" lon="7.25683">
        <ele>393</ele>
        <time>2013-09-02T09:07:54Z</time>
      </trkpt>
      <trkpt lat="43.74451" lon="7.2568">
        <ele>393</ele>
        <time>2013-09-02T09:08:05Z</time>
      </trkpt>
      <trkpt lat="43.74441" lon="7.2568">
        <ele>393</ele>
        <time>2013-09-02T09:08:16Z</time>
      </trkpt>
      <trkpt lat="43.74432" lon="7.25679">
        <ele>393</ele>
        <time>2013-09-02T09:08:26Z</time>
      </trkpt>
      <trkpt lat="43.74425" lon="7.25671">
        <ele>385</ele>
        <time>2013-09-02T09:08:36Z</time>
      </trkpt>
      <trkpt lat="43.74416" lon="7.25665">
        <ele>385</ele>
        <time>2013-09-02T09:08:46Z</time>
      </trkpt>
      <trkpt lat="43.7441" lon="7.25655">
        <ele>385</ele>
        <time>2013-09-02T09:08:56Z</time>
      </trkpt>
      <trkpt lat="43.74401" lon="7.25648">
        <ele>385</ele>
        <time>2013-09-02T09:09:08Z</time>
      </trkpt>
      <trkpt lat="43.74391" lon="7.25651">
        <ele>385</ele>
        <time>2013-09-02T09:09:18Z</time>
      </trkpt>
      <trkpt lat="43.74382" lon="7.25651">
        <ele>385</ele>
        <time>2013-09-02T09:09:30Z</time>
      </trkpt>
      <trkpt lat="43.74372" lon="7.25648">
        <ele>385</ele>
        <time>2013-09-02T09:09:38Z</time>
      </trkpt>
      <trkpt lat="43.74363" lon="7.25648">
        <ele>385</ele>
        <time>2013-09-02T09:09:48Z</time>
      </trkpt>
      <trkpt lat="43.74354" lon="7.25646">
        <ele>385</ele>
        <time>2013-09-02T09:09:58Z</time>
      </trkpt>
      <trkpt lat="43.74345" lon="7.25641">
        <ele>385</ele>
        <time>2013-09-02T09:10:08Z</time>
      </trkpt>
      <trkpt lat="43.74336" lon="7.25638">
        <ele>385</ele>
        <time>2013-09-02T09:10:17Z</time>
      </trkpt>
      <trkpt lat="43.74331" lon="7.25628">
        <ele>385</ele>
        <time>2013-09-02T09:10:28Z</time>
      </trkpt>
      <trkpt lat="43.74322" lon="7.25621">
        <ele>380</ele>
        <time>2013-09-02T09:10:36Z</time>
      </trkpt>
      <trkpt lat="43.74313" lon="7.25624">
        <ele>380</ele>
        <time>2013-09-02T09:10:47Z</time>
      </trkpt>
      <trkpt lat="43.74304" lon="7.25618">
        <ele>380</ele>
        <time>2013-09-02T09:10:57Z</time>
      </trkpt>
      <trkpt lat="43.74294" lon="7.25619">
        <ele>380</ele>
        <time>2013-09-02T09:11:07Z</time>
      </trkpt>
      <trkpt lat="43.74285" lon="7.25619">
        <ele>380</ele>
        <time>2013-09-02T09:11:16Z</time>
      </trkpt>
      <trkpt lat="43.74277" lon="7.25626">
        <ele>380</ele>
        <time>2013-09-02T09:11:28Z</time>
      </trkpt>
      <trkpt lat="43.74268" lon="7.25632">
        <ele>373</ele>
        <time>2013-09-02T09:11:35Z</time>
      </trkpt>
      <trkpt lat="43.74259" lon="7.25639">
        <ele>373</ele>
        <time>2013-09-02T09:11:45Z</time>
      </trkpt>
      <trkpt lat="43.74251" lon="7.25646">
        <ele>373</ele>
        <time>2013-09-02T09:11:52Z</time>
      </trkpt>
      <trkpt lat="43.74243" lon="7.25653">
        <ele>373</ele>
        <time>2013-09-02T09:12:03Z</time>
      </trkpt>
      <trkpt lat="43.74234" lon="7.25659">
        <ele>373</ele>
        <time>2013-09-02T09:12:11Z</time>
      </trkpt>
      <trkpt lat="43.74225" lon="7.25665">
        <ele>373</ele>
        <time>2013-09-02T09:12:20Z</time>
      </trkpt>
      <trkpt lat="43.74219" lon="7.25675">
        <ele>373</ele>
        <time>2013-09-02T09:12:30Z</time>
      </trkpt>
      <trkpt lat="43.74212" lon="7.25684">
        <ele>373</ele>
        <time>2013-09-02T09:12:39Z</time>
      </trkpt>
      <trkpt lat="43.74209" lon="7.25696">
        <ele>373</ele>
        <time>2013-09-02T09:12:49Z</time>
      </trkpt>
      <trkpt lat="43.74207" lon="7.25709">
        <ele>373</ele>
        <time>2013-09-02T09:13:14Z</time>
      </trkpt>
      <trkpt lat="43.74202" lon="7.2572">
        <ele>373</ele>
        <time>2013-09-02T09:14:43Z</time>
      </trkpt>
      <trkpt lat="43.74197" lon="7.2573">
        <ele>373</ele>
        <time>2013-09-02T09:14:55Z</time>
      </trkpt>
      <trkpt lat="43.74192" lon="7.25742">
        <ele>364</ele>
        <time>2013-09-02T09:15:07Z</time>
      </trkpt>
      <trkpt lat="43.74187" lon="7.25753">
        <ele>364</ele>
        <time>2013-09-02T09:15:32Z</time>
      </trkpt>
      <trkpt lat="43.74188" lon="7.25765">
        <ele>359</ele>
        <time>2013-09-02T09:15:48Z</time>
      </trkpt>
      <trkpt lat="43.74195" lon="7.25775">
        <ele>368</ele>
        <time>2013-09-02T09:16:35Z</time>
      </trkpt>
      <trkpt lat="43.74199" lon="7.25787">
        <ele>368</ele>
        <time>2013-09-02T09:16:45Z</time>
      </trkpt>
      <trkpt lat="43.74206" lon="7.25796">
        <ele>368</ele>
        <time>2013-09-02T09:16:55Z</time>
      </trkpt>
      <trkpt lat="43.74211" lon="7.25806">
        <ele>368</ele>
        <time>2013-09-02T09:17:09Z</time>
      </trkpt>
      <trkpt lat="43.7422" lon="7.25814">
        <ele>368</ele>
        <time>2013-09-02T09:17:18Z</time>
      </trkpt>
      <trkpt lat="43.74225" lon="7.25824">
        <ele>361</ele>
        <time>2013-09-02T09:17:26Z</time>
      </trkpt>
      <trkpt lat="43.74232" lon="7.25833">
        <ele>361</ele>
        <time>2013-09-02T09:17:35Z</time>
      </trkpt>
      <trkpt lat="43.7424" lon="7.2584">
        <ele>361</ele>
        <time>2013-09-02T09:17:45Z</time>
      </trkpt>
      <trkpt lat="43.74245" lon="7.2585">
        <ele>356</ele>
        <time>2013-09-02T09:17:53Z</time>
      </trkpt>
      <trkpt lat="43.74253" lon="7.25856">
        <ele>356</ele>
        <time>2013-09-02T09:18:03Z</time>
      </trkpt>
      <trkpt lat="43.74261" lon="7.25863">
        <ele>363</ele>
        <time>2013-09-02T09:18:11Z</time>
      </trkpt>
      <trkpt lat="43.74268" lon="7.25872">
        <ele>363</ele>
        <time>2013-09-02T09:18:19Z</time>
      </trkpt>
      <trkpt lat="43.74276" lon="7.25878">
        <ele>363</ele>
        <time>2013-09-02T09:18:28Z</time>
      </trkpt>
      <trkpt lat="43.74285" lon="7.2588">
        <ele>349</ele>
        <time>2013-09-02T09:18:39Z</time>
      </trkpt>
      <trkpt lat="43.74291" lon="7.25891">
        <ele>349</ele>
        <time>2013-09-02T09:18:47Z</time>
      </trkpt>
      <trkpt lat="43.7429" lon="7.25904">
        <ele>356</ele>
        <time>2013-09-02T09:18:58Z</time>
      </trkpt>
      <trkpt lat="43.74286" lon="7.25917">
        <ele>349</ele>
        <time>2013-09-02T09:19:07Z</time>
      </trkpt>
      <trkpt lat="43.74284" lon="7.2593">
        <ele>344</ele>
        <time>2013-09-02T09:19:15Z</time>
      </trkpt>
      <trkpt lat="43.74286" lon="7.25944">
        <ele>344</ele>
        <time>2013-09-02T09:19:23Z</time>
      </trkpt>
      <trkpt lat="43.7429" lon="7.25956">
        <ele>344</ele>
        <time>2013-09-02T09:19:31Z</time>
      </trkpt>
      <trkpt lat="43.74291" lon="7.25969">
        <ele>344</ele>
        <time>2013-09-02T09:19:57Z</time>
      </trkpt>
      <trkpt lat="43.74295" lon="7.25981">
        <ele>344</ele>
        <time>2013-09-02T09:20:05Z</time>
      </trkpt>
      <trkpt lat="43.743" lon="7.25992">
        <ele>344</ele>
        <time>2013-09-02T09:20:14Z</time>
      </trkpt>
      <trkpt lat="43.74303" lon="7.26004">
        <ele>344</ele>
        <time>2013-09-02T09:20:22Z</time>
      </trkpt>
      <trkpt lat="43.74306" lon="7.26016">
        <ele>344</ele>
        <time>2013-09-02T09:20:29Z</time>
      </trkpt>
      <trkpt lat="43.7431" lon="7.26027">
        <ele>344</ele>
        <time>2013-09-02T09:20:38Z</time>
      </trkpt>
      <trkpt lat="43.74313" lon="7.26039">
        <ele>344</ele>
        <time>2013-09-02T09:20:52Z</time>
      </trkpt>
      <trkpt lat="43.74318" lon="7.26049">
        <ele>344</ele>
        <time>2013-09-02T09:22:29Z</time>
      </trkpt>
      <trkpt lat="43.74321" lon="7.26062">
        <ele>344</ele>
        <time>2013-09-02T09:22:37Z</time>
      </trkpt>
      <trkpt lat="43.74324" lon="7.26074">
        <ele>344</ele>
        <time>2013-09-02T09:22:45Z</time>
      </trkpt>
      <trkpt lat="43.74326" lon="7.26088">
        <ele>339</ele>
        <time>2013-09-02T09:22:54Z</time>
      </trkpt>
      <trkpt lat="43.74328" lon="7.261">
        <ele>339</ele>
        <time>2013-09-02T09:23:02Z</time>
      </trkpt>
      <trkpt lat="43.74331" lon="7.26113">
        <ele>333</ele>
        <time>2013-09-02T09:23:11Z</time>
      </trkpt>
      <trkpt lat="43.74335" lon="7.26124">
        <ele>333</ele>
        <time>2013-09-02T09:23:19Z</time>
      </trkpt>
      <trkpt lat="43.7434" lon="7.26137">
        <ele>338</ele>
        <time>2013-09-02T09:23:28Z</time>
      </trkpt>
      <trkpt lat="43.74343" lon="7.26149">
        <ele>338</ele>
        <time>2013-09-02T09:23:36Z</time>
      </trkpt>
      <trkpt lat="43.74345" lon="7.2616">
        <ele>338</ele>
        <time>2013-09-02T09:23:44Z</time>
      </trkpt>
      <trkpt lat="43.7435" lon="7.26171">
        <ele>338</ele>
        <time>2013-09-02T09:23:53Z</time>
      </trkpt>
      <trkpt lat="43.7435" lon="7.26185">
        <ele>338</ele>
        <time>2013-09-02T09:24:23Z</time>
      </trkpt>
      <trkpt lat="43.74357" lon="7.26195">
        <ele>338</ele>
        <time>2013-09-02T09:24:33Z</time>
      </trkpt>
      <trkpt lat="43.74361" lon="7.26207">
        <ele>338</ele>
        <time>2013-09-02T09:24:40Z</time>
      </trkpt>
      <trkpt lat="43.74366" lon="7.26219">
        <ele>338</ele>
        <time>2013-09-02T09:24:48Z</time>
      </trkpt>
      <trkpt lat="43.74371" lon="7.2623">
        <ele>333</ele>
        <time>2013-09-02T09:24:56Z</time>
      </trkpt>
      <trkpt lat="43.74373" lon="7.26242">
        <ele>333</ele>
        <time>2013-09-02T09:25:04Z</time>
      </trkpt>
      <trkpt lat="43.74378" lon="7.26254">
        <ele>333</ele>
        <time>2013-09-02T09:25:13Z</time>
      </trkpt>
      <trkpt lat="43.74378" lon="7.26267">
        <ele>326</ele>
        <time>2013-09-02T09:25:26Z</time>
      </trkpt>
      <trkpt lat="43.74373" lon="7.2628">
        <ele>326</ele>
        <time>2013-09-02T09:25:35Z</time>
      </trkpt>
      <trkpt lat="43.7437" lon="7.26292">
        <ele>326</ele>
        <time>2013-09-02T09:25:45Z</time>
      </trkpt>
      <trkpt lat="43.74365" lon="7.26303">
        <ele>326</ele>
        <time>2013-09-02T09:25:54Z</time>
      </trkpt>
      <trkpt lat="43.74359" lon="7.26314">
        <ele>326</ele>
        <time>2013-09-02T09:26:03Z</time>
      </trkpt>
      <trkpt lat="43.74355" lon="7.26325">
        <ele>320</ele>
        <time>2013-09-02T09:26:10Z</time>
      </trkpt>
      <trkpt lat="43.74346" lon="7.26329">
        <ele>315</ele>
        <time>2013-09-02T09:26:19Z</time>
      </trkpt>
      <trkpt lat="43.74337" lon="7.26333">
        <ele>315</ele>
        <time>2013-09-02T09:26:27Z</time>
      </trkpt>
      <trkpt lat="43.74329" lon="7.26339">
        <ele>315</ele>
        <time>2013-09-02T09:26:37Z</time>
      </trkpt>
      <trkpt lat="43.7432" lon="7.26343">
        <ele>315</ele>
        <time>2013-09-02T09:26:47Z</time>
      </trkpt>
      <trkpt lat="43.74312" lon="7.26346">
        <ele>315</ele>
        <time>2013-09-02T09:26:57Z</time>
      </trkpt>
      <trkpt lat="43.74302" lon="7.2635">
        <ele>307</ele>
        <time>2013-09-02T09:27:06Z</time>
      </trkpt>
      <trkpt lat="43.74293" lon="7.2635">
        <ele>307</ele>
        <time>2013-09-02T09:27:12Z</time>
      </trkpt>
      <trkpt lat="43.74284" lon="7.26351">
        <ele>307</ele>
        <time>2013-09-02T09:27:19Z</time>
      </trkpt>
      <trkpt lat="43.74275" lon="7.26355">
        <ele>307</ele>
        <time>2013-09-02T09:27:25Z</time>
      </trkpt>
      <trkpt lat="43.74267" lon="7.26359">
        <ele>307</ele>
        <time>2013-09-02T09:27:34Z</time>
      </trkpt>
      <trkpt lat="43.74258" lon="7.26361">
        <ele>314</ele>
        <time>2013-09-02T09:27:43Z</time>
      </trkpt>
      <trkpt lat="43.74248" lon="7.2636">
        <ele>314</ele>
        <time>2013-09-02T09:27:54Z</time>
      </trkpt>
      <trkpt lat="43.74236" lon="7.26357">
        <ele>314</ele>
        <time>2013-09-02T09:28:05Z</time>
      </trkpt>
      <trkpt lat="43.74226" lon="7.26358">
        <ele>314</ele>
        <time>2013-09-02T09:28:14Z</time>
      </trkpt>
      <trkpt lat="43.74216" lon="7.26363">
        <ele>307</ele>
        <time>2013-09-02T09:28:21Z</time>
      </trkpt>
      <trkpt lat="43.74206" lon="7.26364">
        <ele>307</ele>
        <time>2013-09-02T09:28:28Z</time>
      </trkpt>
      <trkpt lat="43.74197" lon="7.26369">
        <ele>307</ele>
        <time>2013-09-02T09:28:38Z</time>
      </trkpt>
      <trkpt lat="43.74187" lon="7.2637">
        <ele>298</ele>
        <time>2013-09-02T09:28:46Z</time>
      </trkpt>
      <trkpt lat="43.74177" lon="7.26369">
        <ele>298</ele>
        <time>2013-09-02T09:28:54Z</time>
      </trkpt>
      <trkpt lat="43.74167" lon="7.26365">
        <ele>298</ele>
        <time>2013-09-02T09:29:02Z</time>
      </trkpt>
      <trkpt lat="43.74159" lon="7.26359">
        <ele>298</ele>
        <time>2013-09-02T09:29:14Z</time>
      </trkpt>
      <trkpt lat="43.74151" lon="7.26353">
        <ele>298</ele>
        <time>2013-09-02T09:29:21Z</time>
      </trkpt>
      <trkpt lat="43.74145" lon="7.26343">
        <ele>298</ele>
        <time>2013-09-02T09:29:28Z</time>
      </trkpt>
      <trkpt lat="43.74137" lon="7.26336">
        <ele>298</ele>
        <time>2013-09-02T09:29:37Z</time>
      </trkpt>
      <trkpt lat="43.74133" lon="7.26325">
        <ele>298</ele>
        <time>2013-09-02T09:29:45Z</time>
      </trkpt>
      <trkpt lat="43.74126" lon="7.26316">
        <ele>292</ele>
        <time>2013-09-02T09:29:50Z</time>
      </trkpt>
      <trkpt lat="43.74119" lon="7.26309">
        <ele>292</ele>
        <time>2013-09-02T09:29:56Z</time>
      </trkpt>
      <trkpt lat="43.7411" lon="7.26302">
        <ele>286</ele>
        <time>2013-09-02T09:30:05Z</time>
      </trkpt>
      <trkpt lat="43.74103" lon="7.26292">
        <ele>286</ele>
        <time>2013-09-02T09:30:14Z</time>
      </trkpt>
      <trkpt lat="43.74095" lon="7.26286">
        <ele>286</ele>
        <time>2013-09-02T09:30:21Z</time>
      </trkpt>
      <trkpt lat="43.74087" lon="7.2628">
        <ele>286</ele>
        <time>2013-09-02T09:30:28Z</time>
      </trkpt>
      <trkpt lat="43.74077" lon="7.26276">
        <ele>286</ele>
        <time>2013-09-02T09:30:36Z</time>
      </trkpt>
      <trkpt lat="43.74069" lon="7.26272">
        <ele>286</ele>
        <time>2013-09-02T09:30:44Z</time>
      </trkpt>
      <trkpt lat="43.74059" lon="7.26274">
        <ele>286</ele>
        <time>2013-09-02T09:30:50Z</time>
      </trkpt>
      <trkpt lat="43.74051" lon="7.26267">
        <ele>286</ele>
        <time>2013-09-02T09:30:57Z</time>
      </trkpt>
      <trkpt lat="43.74042" lon="7.26263">
        <ele>286</ele>
        <time>2013-09-02T09:31:05Z</time>
      </trkpt>
      <trkpt lat="43.74032" lon="7.26264">
        <ele>279</ele>
        <time>2013-09-02T09:31:13Z</time>
      </trkpt>
      <trkpt lat="43.74024" lon="7.2626">
        <ele>279</ele>
        <time>2013-09-02T09:31:21Z</time>
      </trkpt>
      <trkpt lat="43.74016" lon="7.26256">
        <ele>279</ele>
        <time>2013-09-02T09:31:27Z</time>
      </trkpt>
      <trkpt lat="43.74008" lon="7.26249">
        <ele>279</ele>
        <time>2013-09-02T09:31:34Z</time>
      </trkpt>
      <trkpt lat="43.73999" lon="7.26245">
        <ele>279</ele>
        <time>2013-09-02T09:31:41Z</time>
      </trkpt>
      <trkpt lat="43.7399" lon="7.26249">
        <ele>279</ele>
        <time>2013-09-02T09:31:48Z</time>
      </trkpt>
      <trkpt lat="43.73981" lon="7.26251">
        <ele>279</ele>
        <time>2013-09-02T09:31:56Z</time>
      </trkpt>
      <trkpt lat="43.73972" lon="7.26252">
        <ele>279</ele>
        <time>2013-09-02T09:32:06Z</time>
      </trkpt>
      <trkpt lat="43.73963" lon="7.26257">
        <ele>279</ele>
        <time>2013-09-02T09:32:12Z</time>
      </trkpt>
      <trkpt lat="43.73954" lon="7.26263">
        <ele>279</ele>
        <time>2013-09-02T09:32:20Z</time>
      </trkpt>
      <trkpt lat="43.73945" lon="7.26265">
        <ele>273</ele>
        <time>2013-09-02T09:32:28Z</time>
      </trkpt>
      <trkpt lat="43.73936" lon="7.2627">
        <ele>265</ele>
        <time>2013-09-02T09:32:36Z</time>
      </trkpt>
      <trkpt lat="43.73927" lon="7.26272">
        <ele>265</ele>
        <time>2013-09-02T09:32:43Z</time>
      </trkpt>
      <trkpt lat="43.73918" lon="7.26274">
        <ele>265</ele>
        <time>2013-09-02T09:32:50Z</time>
      </trkpt>
      <trkpt lat="43.73909" lon="7.26272">
        <ele>265</ele>
        <time>2013-09-02T09:33:01Z</time>
      </trkpt>
      <trkpt lat="43.739" lon="7.26268">
        <ele>265</ele>
        <time>2013-09-02T09:33:08Z</time>
      </trkpt>
      <trkpt lat="43.73891" lon="7.26264">
        <ele>265</ele>
        <time>2013-09-02T09:33:17Z</time>
      </trkpt>
      <trkpt lat="43.73881" lon="7.26265">
        <ele>265</ele>
        <time>2013-09-02T09:33:25Z</time>
      </trkpt>
      <trkpt lat="43.73871" lon="7.26263">
        <ele>265</ele>
        <time>2013-09-02T09:33:32Z</time>
      </trkpt>
      <trkpt lat="43.73862" lon="7.2626">
        <ele>265</ele>
        <time>2013-09-02T09:33:41Z</time>
      </trkpt>
      <trkpt lat="43.73853" lon="7.26265">
        <ele>256</ele>
        <time>2013-09-02T09:33:49Z</time>
      </trkpt>
      <trkpt lat="43.73844" lon="7.26272">
        <ele>256</ele>
        <time>2013-09-02T09:33:56Z</time>
      </trkpt>
      <trkpt lat="43.73835" lon="7.26275">
        <ele>249</ele>
        <time>2013-09-02T09:34:04Z</time>
      </trkpt>
      <trkpt lat="43.73825" lon="7.26279">
        <ele>249</ele>
        <time>2013-09-02T09:34:12Z</time>
      </trkpt>
      <trkpt lat="43.73816" lon="7.26284">
        <ele>249</ele>
        <time>2013-09-02T09:34:22Z</time>
      </trkpt>
      <trkpt lat="43.73806" lon="7.26288">
        <ele>243</ele>
        <time>2013-09-02T09:34:31Z</time>
      </trkpt>
      <trkpt lat="43.73797" lon="7.26291">
        <ele>243</ele>
        <time>2013-09-02T09:34:39Z</time>
      </trkpt>
      <trkpt lat="43.73788" lon="7.26288">
        <ele>248</ele>
        <time>2013-09-02T09:34:56Z</time>
      </trkpt>
      <trkpt lat="43.73778" lon="7.26289">
        <ele>248</ele>
        <time>2013-09-02T09:35:04Z</time>
      </trkpt>
      <trkpt lat="43.73769" lon="7.26288">
        <ele>243</ele>
        <time>2013-09-02T09:35:12Z</time>
      </trkpt>
      <trkpt lat="43.7376" lon="7.26286">
        <ele>243</ele>
        <time>2013-09-02T09:35:22Z</time>
      </trkpt>
      <trkpt lat="43.7375" lon="7.26283">
        <ele>243</ele>
        <time>2013-09-02T09:35:31Z</time>
      </trkpt>
      <trkpt lat="43.73742" lon="7.26277">
        <ele>243</ele>
        <time>2013-09-02T09:35:39Z</time>
      </trkpt>
      <trkpt lat="43.73732" lon="7.26277">
        <ele>243</ele>
        <time>2013-09-02T09:35:48Z</time>
      </trkpt>
      <trkpt lat="43.73723" lon="7.26276">
        <ele>243</ele>
        <time>2013-09-02T09:35:56Z</time>
      </trkpt>
      <trkpt lat="43.73714" lon="7.26277">
        <ele>243</ele>
        <time>2013-09-02T09:36:04Z</time>
      </trkpt>
      <trkpt lat="43.73704" lon="7.26277">
        <ele>236</ele>
        <time>2013-09-02T09:36:12Z</time>
      </trkpt>
      <trkpt lat="43.73694" lon="7.26277">
        <ele>236</ele>
        <time>2013-09-02T09:36:20Z</time>
      </trkpt>
      <trkpt lat="43.73685" lon="7.26281">
        <ele>236</ele>
        <time>2013-09-02T09:36:29Z</time>
      </trkpt>
      <trkpt lat="43.73679" lon="7.26291">
        <ele>236</ele>
        <time>2013-09-02T09:36:36Z</time>
      </trkpt>
      <trkpt lat="43.73672" lon="7.263">
        <ele>229</ele>
        <time>2013-09-02T09:36:42Z</time>
      </trkpt>
      <trkpt lat="43.73666" lon="7.2631">
        <ele>229</ele>
        <time>2013-09-02T09:36:49Z</time>
      </trkpt>
      <trkpt lat="43.73659" lon="7.26317">
        <ele>229</ele>
        <time>2013-09-02T09:36:56Z</time>
      </trkpt>
      <trkpt lat="43.73652" lon="7.26326">
        <ele>222</ele>
        <time>2013-09-02T09:37:04Z</time>
      </trkpt>
      <trkpt lat="43.73644" lon="7.26331">
        <ele>222</ele>
        <time>2013-09-02T09:37:13Z</time>
      </trkpt>
      <trkpt lat="43.73635" lon="7.26336">
        <ele>222</ele>
        <time>2013-09-02T09:37:22Z</time>
      </trkpt>
      <trkpt lat="43.73625" lon="7.2634">
        <ele>227</ele>
        <time>2013-09-02T09:37:30Z</time>
      </trkpt>
      <trkpt lat="43.73616" lon="7.26339">
        <ele>234</ele>
        <time>2013-09-02T09:37:38Z</time>
      </trkpt>
      <trkpt lat="43.73607" lon="7.26342">
        <ele>234</ele>
        <time>2013-09-02T09:37:46Z</time>
      </trkpt>
      <trkpt lat="43.73598" lon="7.26342">
        <ele>234</ele>
        <time>2013-09-02T09:37:54Z</time>
      </trkpt>
      <trkpt lat="43.73588" lon="7.26343">
        <ele>234</ele>
        <time>2013-09-02T09:38:02Z</time>
      </trkpt>
      <trkpt lat="43.73579" lon="7.26345">
        <ele>229</ele>
        <time>2013-09-02T09:38:10Z</time>
      </trkpt>
      <trkpt lat="43.73569" lon="7.26345">
        <ele>229</ele>
        <time>2013-09-02T09:38:18Z</time>
      </trkpt>
      <trkpt lat="43.7356" lon="7.26346">
        <ele>220</ele>
        <time>2013-09-02T09:38:26Z</time>
      </trkpt>
      <trkpt lat="43.73552" lon="7.26342">
        <ele>220</ele>
        <time>2013-09-02T09:38:33Z</time>
      </trkpt>
      <trkpt lat="43.73543" lon="7.26339">
        <ele>214</ele>
        <time>2013-09-02T09:38:42Z</time>
      </trkpt>
      <trkpt lat="43.73535" lon="7.26333">
        <ele>214</ele>
        <time>2013-09-02T09:38:49Z</time>
      </trkpt>
      <trkpt lat="43.73526" lon="7.26327">
        <ele>214</ele>
        <time>2013-09-02T09:38:57Z</time>
      </trkpt>
      <trkpt lat="43.73517" lon="7.26321">
        <ele>214</ele>
        <time>2013-09-02T09:39:04Z</time>
      </trkpt>
      <trkpt lat="43.73509" lon="7.26315">
        <ele>214</ele>
        <time>2013-09-02T09:39:10Z</time>
      </trkpt>
      <trkpt lat="43.73502" lon="7.26305">
        <ele>219</ele>
        <time>2013-09-02T09:39:18Z</time>
      </trkpt>
      <trkpt lat="43.73494" lon="7.26298">
        <ele>219</ele>
        <time>2013-09-02T09:39:25Z</time>
      </trkpt>
      <trkpt lat="43.73486" lon="7.26291">
        <ele>219</ele>
        <time>2013-09-02T09:39:33Z</time>
      </trkpt>
      <trkpt lat="43.73478" lon="7.26284">
        <ele>219</ele>
        <time>2013-09-02T09:39:41Z</time>
      </trkpt>
      <trkpt lat="43.73468" lon="7.26279">
        <ele>219</ele>
        <time>2013-09-02T09:39:49Z</time>
      </trkpt>
      <trkpt lat="43.73459" lon="7.26274">
        <ele>214</ele>
        <time>2013-09-02T09:39:57Z</time>
      </trkpt>
      <trkpt lat="43.73451" lon="7.26267">
        <ele>207</ele>
        <time>2013-09-02T09:40:06Z</time>
      </trkpt>
      <trkpt lat="43.73442" lon="7.26262">
        <ele>207</ele>
        <time>2013-09-02T09:40:13Z</time>
      </trkpt>
      <trkpt lat="43.73435" lon="7.26256">
        <ele>207</ele>
        <time>2013-09-02T09:40:20Z</time>
      </trkpt>
      <trkpt lat="43.73426" lon="7.2625">
        <ele>207</ele>
        <time>2013-09-02T09:40:29Z</time>
      </trkpt>
      <trkpt lat="43.73425" lon="7.26238">
        <ele>201</ele>
        <time>2013-09-02T09:40:43Z</time>
      </trkpt>
      <trkpt lat="43.73428" lon="7.26226">
        <ele>201</ele>
        <time>2013-09-02T09:40:54Z</time>
      </trkpt>
      <trkpt lat="43.73423" lon="7.26215">
        <ele>195</ele>
        <time>2013-09-02T09:41:02Z</time>
      </trkpt>
      <trkpt lat="43.73418" lon="7.26204">
        <ele>195</ele>
        <time>2013-09-02T09:41:10Z</time>
      </trkpt>
      <trkpt lat="43.73409" lon="7.26195">
        <ele>195</ele>
        <time>2013-09-02T09:41:18Z</time>
      </trkpt>
      <trkpt lat="43.73402" lon="7.26187">
        <ele>195</ele>
        <time>2013-09-02T09:41:31Z</time>
      </trkpt>
      <trkpt lat="43.73397" lon="7.26176">
        <ele>195</ele>
        <time>2013-09-02T09:41:46Z</time>
      </trkpt>
      <trkpt lat="43.73388" lon="7.26177">
        <ele>195</ele>
        <time>2013-09-02T09:41:53Z</time>
      </trkpt>
      <trkpt lat="43.73381" lon="7.26166">
        <ele>195</ele>
        <time>2013-09-02T09:42:03Z</time>
      </trkpt>
      <trkpt lat="43.73374" lon="7.26159">
        <ele>195</ele>
        <time>2013-09-02T09:42:10Z</time>
      </trkpt>
      <trkpt lat="43.73366" lon="7.26152">
        <ele>195</ele>
        <time>2013-09-02T09:42:18Z</time>
      </trkpt>
      <trkpt lat="43.73358" lon="7.26145">
        <ele>195</ele>
        <time>2013-09-02T09:42:28Z</time>
      </trkpt>
      <trkpt lat="43.73349" lon="7.26145">
        <ele>195</ele>
        <time>2013-09-02T09:42:34Z</time>
      </trkpt>
      <trkpt lat="43.73341" lon="7.26141">
        <ele>195</ele>
        <time>2013-09-02T09:42:41Z</time>
      </trkpt>
      <trkpt lat="43.73332" lon="7.26139">
        <ele>195</ele>
        <time>2013-09-02T09:42:49Z</time>
      </trkpt>
      <trkpt lat="43.73322" lon="7.26138">
        <ele>195</ele>
        <time>2013-09-02T09:42:56Z</time>
      </trkpt>
      <trkpt lat="43.73312" lon="7.2614">
        <ele>195</ele>
        <time>2013-09-02T09:43:04Z</time>
      </trkpt>
      <trkpt lat="43.73302" lon="7.26141">
        <ele>188</ele>
        <time>2013-09-02T09:43:13Z</time>
      </trkpt>
      <trkpt lat="43.73292" lon="7.26143">
        <ele>182</ele>
        <time>2013-09-02T09:43:22Z</time>
      </trkpt>
      <trkpt lat="43.73283" lon="7.26147">
        <ele>182</ele>
        <time>2013-09-02T09:43:31Z</time>
      </trkpt>
      <trkpt lat="43.73276" lon="7.26154">
        <ele>182</ele>
        <time>2013-09-02T09:43:40Z</time>
      </trkpt>
      <trkpt lat="43.73266" lon="7.26153">
        <ele>182</ele>
        <time>2013-09-02T09:43:48Z</time>
      </trkpt>
      <trkpt lat="43.73257" lon="7.2615">
        <ele>182</ele>
        <time>2013-09-02T09:43:56Z</time>
      </trkpt>
      <trkpt lat="43.73248" lon="7.26145">
        <ele>182</ele>
        <time>2013-09-02T09:44:03Z</time>
      </trkpt>
      <trkpt lat="43.73241" lon="7.26138">
        <ele>177</ele>
        <time>2013-09-02T09:44:11Z</time>
      </trkpt>
      <trkpt lat="43.73234" lon="7.26129">
        <ele>177</ele>
        <time>2013-09-02T09:44:19Z</time>
      </trkpt>
      <trkpt lat="43.73229" lon="7.26118">
        <ele>177</ele>
        <time>2013-09-02T09:44:27Z</time>
      </trkpt>
      <trkpt lat="43.73223" lon="7.26108">
        <ele>171</ele>
        <time>2013-09-02T09:44:35Z</time>
      </trkpt>
      <trkpt lat="43.73214" lon="7.26099">
        <ele>171</ele>
        <time>2013-09-02T09:44:44Z</time>
      </trkpt>
      <trkpt lat="43.73205" lon="7.26098">
        <ele>171</ele>
        <time>2013-09-02T09:44:52Z</time>
      </trkpt>
      <trkpt lat="43.73196" lon="7.26098">
        <ele>171</ele>
        <time>2013-09-02T09:45:00Z</time>
      </trkpt>
      <trkpt lat="43.73186" lon="7.26099">
        <ele>171</ele>
        <time>2013-09-02T09:45:08Z</time>
      </trkpt>
      <trkpt lat="43.73178" lon="7.26104">
        <ele>171</ele>
        <time>2013-09-02T09:45:15Z</time>
      </trkpt>
      <trkpt lat="43.73169" lon="7.26107">
        <ele>171</ele>
        <time>2013-09-02T09:45:26Z</time>
      </trkpt>
      <trkpt lat="43.73161" lon="7.26116">
        <ele>171</ele>
        <time>2013-09-02T09:45:35Z</time>
      </trkpt>
      <trkpt lat="43.73151" lon="7.26115">
        <ele>171</ele>
        <time>2013-09-02T09:45:41Z</time>
      </trkpt>
      <trkpt lat="43.73142" lon="7.2612">
        <ele>171</ele>
        <time>2013-09-02T09:45:49Z</time>
      </trkpt>
      <trkpt lat="43.73133" lon="7.26124">
        <ele>171</ele>
        <time>2013-09-02T09:45:58Z</time>
      </trkpt>
      <trkpt lat="43.73125" lon="7.2612">
        <ele>171</ele>
        <time>2013-09-02T09:46:06Z</time>
      </trkpt>
      <trkpt lat="43.73114" lon="7.26122">
        <ele>171</ele>
        <time>2013-09-02T09:46:10Z</time>
      </trkpt>
      <trkpt lat="43.73106" lon="7.26116">
        <ele>171</ele>
        <time>2013-09-02T09:46:19Z</time>
      </trkpt>
      <trkpt lat="43.73095" lon="7.26116">
        <ele>171</ele>
        <time>2013-09-02T09:46:28Z</time>
      </trkpt>
      <trkpt lat="43.73086" lon="7.26115">
        <ele>171</ele>
        <time>2013-09-02T09:46:35Z</time>
      </trkpt>
      <trkpt lat="43.73076" lon="7.26115">
        <ele>171</ele>
        <time>2013-09-02T09:46:44Z</time>
      </trkpt>
      <trkpt lat="43.73067" lon="7.26117">
        <ele>171</ele>
        <time>2013-09-02T09:46:55Z</time>
      </trkpt>
      <trkpt lat="43.73056" lon="7.2612">
        <ele>177</ele>
        <time>2013-09-02T09:47:05Z</time>
      </trkpt>
      <trkpt lat="43.73047" lon="7.26117">
        <ele>177</ele>
        <time>2013-09-02T09:47:12Z</time>
      </trkpt>
      <trkpt lat="43.73038" lon="7.26118">
        <ele>177</ele>
        <time>2013-09-02T09:47:21Z</time>
      </trkpt>
      <trkpt lat="43.73028" lon="7.26116">
        <ele>172</ele>
        <time>2013-09-02T09:47:30Z</time>
      </trkpt>
      <trkpt lat="43.7302" lon="7.26113">
        <ele>172</ele>
        <time>2013-09-02T09:47:36Z</time>
      </trkpt>
      <trkpt lat="43.73011" lon="7.26111">
        <ele>160</ele>
        <time>2013-09-02T09:47:43Z</time>
      </trkpt>
      <trkpt lat="43.73001" lon="7.26106">
        <ele>160</ele>
        <time>2013-09-02T09:47:51Z</time>
      </trkpt>
      <trkpt lat="43.72992" lon="7.26099">
        <ele>160</ele>
        <time>2013-09-02T09:47:59Z</time>
      </trkpt>
      <trkpt lat="43.72983" lon="7.26095">
        <ele>155</ele>
        <time>2013-09-02T09:48:06Z</time>
      </trkpt>
      <trkpt lat="43.72974" lon="7.26089">
        <ele>155</ele>
        <time>2013-09-02T09:48:15Z</time>
      </trkpt>
      <trkpt lat="43.72966" lon="7.26082">
        <ele>155</ele>
        <time>2013-09-02T09:48:27Z</time>
      </trkpt>
      <trkpt lat="43.72957" lon="7.26076">
        <ele>160</ele>
        <time>2013-09-02T09:48:35Z</time>
      </trkpt>
      <trkpt lat="43.72949" lon="7.26072">
        <ele>160</ele>
        <time>2013-09-02T09:48:41Z</time>
      </trkpt>
      <trkpt lat="43.72939" lon="7.26069">
        <ele>152</ele>
        <time>2013-09-02T09:48:49Z</time>
      </trkpt>
      <trkpt lat="43.72929" lon="7.26069">
        <ele>152</ele>
        <time>2013-09-02T09:48:56Z</time>
      </trkpt>
      <trkpt lat="43.72919" lon="7.26068">
        <ele>152</ele>
        <time>2013-09-02T09:49:04Z</time>
      </trkpt>
      <trkpt lat="43.7291" lon="7.26067">
        <ele>152</ele>
        <time>2013-09-02T09:49:11Z</time>
      </trkpt>
      <trkpt lat="43.729" lon="7.2607">
        <ele>152</ele>
        <time>2013-09-02T09:49:19Z</time>
      </trkpt>
      <trkpt lat="43.72891" lon="7.26071">
        <ele>143</ele>
        <time>2013-09-02T09:49:29Z</time>
      </trkpt>
      <trkpt lat="43.72881" lon="7.26072">
        <ele>143</ele>
        <time>2013-09-02T09:49:38Z</time>
      </trkpt>
      <trkpt lat="43.72871" lon="7.26074">
        <ele>143</ele>
        <time>2013-09-02T09:49:47Z</time>
      </trkpt>
      <trkpt lat="43.72861" lon="7.26074">
        <ele>150</ele>
        <time>2013-09-02T09:49:56Z</time>
      </trkpt>
      <trkpt lat="43.72853" lon="7.26079">
        <ele>150</ele>
        <time>2013-09-02T09:50:03Z</time>
      </trkpt>
      <trkpt lat="43.72844" lon="7.2608">
        <ele>150</ele>
        <time>2013-09-02T09:50:10Z</time>
      </trkpt>
      <trkpt lat="43.72834" lon="7.26079">
        <ele>145</ele>
        <time>2013-09-02T09:50:17Z</time>
      </trkpt>
      <trkpt lat="43.72825" lon="7.26077">
        <ele>145</ele>
        <time>2013-09-02T09:50:24Z</time>
      </trkpt>
      <trkpt lat="43.72816" lon="7.26077">
        <ele>145</ele>
        <time>2013-09-02T09:50:31Z</time>
      </trkpt>
      <trkpt lat="43.7281" lon="7.2609">
        <ele>145</ele>
        <time>2013-09-02T09:50:43Z</time>
      </trkpt>
      <trkpt lat="43.72805" lon="7.26101">
        <ele>145</ele>
        <time>2013-09-02T09:50:49Z</time>
      </trkpt>
      <trkpt lat="43.72801" lon="7.26113">
        <ele>138</ele>
        <time>2013-09-02T09:50:58Z</time>
      </trkpt>
      <trkpt lat="43.72794" lon="7.26121">
        <ele>138</ele>
        <time>2013-09-02T09:51:06Z</time>
      </trkpt>
      <trkpt lat="43.72786" lon="7.26128">
        <ele>138</ele>
        <time>2013-09-02T09:51:14Z</time>
      </trkpt>
      <trkpt lat="43.72778" lon="7.26134">
        <ele>131</ele>
        <time>2013-09-02T09:51:22Z</time>
      </trkpt>
      <trkpt lat="43.72769" lon="7.26135">
        <ele>131</ele>
        <time>2013-09-02T09:51:31Z</time>
      </trkpt>
      <trkpt lat="43.72758" lon="7.26133">
        <ele>131</ele>
        <time>2013-09-02T09:51:42Z</time>
      </trkpt>
      <trkpt lat="43.72753" lon="7.26146">
        <ele>131</ele>
        <time>2013-09-02T09:51:52Z</time>
      </trkpt>
      <trkpt lat="43.72748" lon="7.26156">
        <ele>131</ele>
        <time>2013-09-02T09:52:04Z</time>
      </trkpt>
      <trkpt lat="43.72749" lon="7.26141">
        <ele>131</ele>
        <time>2013-09-02T09:53:00Z</time>
      </trkpt>
      <trkpt lat="43.72755" lon="7.26151">
        <ele>137</ele>
        <time>2013-09-02T09:53:44Z</time>
      </trkpt>
      <trkpt lat="43.72747" lon="7.26144">
        <ele>137</ele>
        <time>2013-09-02T09:54:07Z</time>
      </trkpt>
      <trkpt lat="43.72753" lon="7.26156">
        <ele>137</ele>
        <time>2013-09-02T09:54:29Z</time>
      </trkpt>
      <trkpt lat="43.72748" lon="7.26145">
        <ele>137</ele>
        <time>2013-09-02T09:55:47Z</time>
      </trkpt>
      <trkpt lat="43.72738" lon="7.26148">
        <ele>137</ele>
        <time>2013-09-02T09:56:28Z</time>
      </trkpt>
      <trkpt lat="43.72728" lon="7.26151">
        <ele>137</ele>
        <time>2013-09-02T09:56:36Z</time>
      </trkpt>
      <trkpt lat="43.7272" lon="7.26159">
        <ele>144</ele>
        <time>2013-09-02T09:56:50Z</time>
      </trkpt>
      <trkpt lat="43.72711" lon="7.2616">
        <ele>144</ele>
        <time>2013-09-02T09:56:59Z</time>
      </trkpt>
      <trkpt lat="43.72702" lon="7.26164">
        <ele>144</ele>
        <time>2013-09-02T09:57:06Z</time>
      </trkpt>
      <trkpt lat="43.72692" lon="7.26167">
        <ele>137</ele>
        <time>2013-09-02T09:57:13Z</time>
      </trkpt>
      <trkpt lat="43.72682" lon="7.26169">
        <ele>130</ele>
        <time>2013-09-02T09:57:20Z</time>
      </trkpt>
      <trkpt lat="43.72674" lon="7.26175">
        <ele>130</ele>
        <time>2013-09-02T09:57:28Z</time>
      </trkpt>
      <trkpt lat="43.72667" lon="7.26184">
        <ele>130</ele>
        <time>2013-09-02T09:57:39Z</time>
      </trkpt>
      <trkpt lat="43.72659" lon="7.26191">
        <ele>115</ele>
        <time>2013-09-02T09:57:48Z</time>
      </trkpt>
      <trkpt lat="43.72652" lon="7.26197">
        <ele>115</ele>
        <time>2013-09-02T09:57:57Z</time>
      </trkpt>
      <trkpt lat="43.72643" lon="7.26203">
        <ele>108</ele>
        <time>2013-09-02T09:58:06Z</time>
      </trkpt>
      <trkpt lat="43.72634" lon="7.26208">
        <ele>108</ele>
        <time>2013-09-02T09:58:14Z</time>
      </trkpt>
      <trkpt lat="43.72626" lon="7.26213">
        <ele>108</ele>
        <time>2013-09-02T09:58:22Z</time>
      </trkpt>
      <trkpt lat="43.72616" lon="7.26215">
        <ele>108</ele>
        <time>2013-09-02T09:58:29Z</time>
      </trkpt>
      <trkpt lat="43.72608" lon="7.26221">
        <ele>116</ele>
        <time>2013-09-02T09:58:40Z</time>
      </trkpt>
      <trkpt lat="43.72599" lon="7.26226">
        <ele>116</ele>
        <time>2013-09-02T09:58:47Z</time>
      </trkpt>
      <trkpt lat="43.72591" lon="7.2623">
        <ele>116</ele>
        <time>2013-09-02T09:58:56Z</time>
      </trkpt>
      <trkpt lat="43.72582" lon="7.26236">
        <ele>108</ele>
        <time>2013-09-02T09:59:04Z</time>
      </trkpt>
      <trkpt lat="43.72574" lon="7.26243">
        <ele>108</ele>
        <time>2013-09-02T09:59:13Z</time>
      </trkpt>
      <trkpt lat="43.72566" lon="7.26247">
        <ele>117</ele>
        <time>2013-09-02T09:59:26Z</time>
      </trkpt>
      <trkpt lat="43.72556" lon="7.26249">
        <ele>125</ele>
        <time>2013-09-02T09:59:38Z</time>
      </trkpt>
      <trkpt lat="43.72547" lon="7.26251">
        <ele>125</ele>
        <time>2013-09-02T09:59:46Z</time>
      </trkpt>
      <trkpt lat="43.7254" lon="7.2626">
        <ele>125</ele>
        <time>2013-09-02T09:59:53Z</time>
      </trkpt>
      <trkpt lat="43.72535" lon="7.26271">
        <ele>125</ele>
        <time>2013-09-02T10:00:04Z</time>
      </trkpt>
      <trkpt lat="43.72526" lon="7.26275">
        <ele>112</ele>
        <time>2013-09-02T10:00:12Z</time>
      </trkpt>
      <trkpt lat="43.72517" lon="7.26274">
        <ele>103</ele>
        <time>2013-09-02T10:00:18Z</time>
      </trkpt>
      <trkpt lat="43.72507" lon="7.26271">
        <ele>98</ele>
        <time>2013-09-02T10:00:25Z</time>
      </trkpt>
      <trkpt lat="43.72498" lon="7.26264">
        <ele>89</ele>
        <time>2013-09-02T10:00:32Z</time>
      </trkpt>
      <trkpt lat="43.72489" lon="7.26263">
        <ele>89</ele>
        <time>2013-09-02T10:00:39Z</time>
      </trkpt>
      <trkpt lat="43.7248" lon="7.26256">
        <ele>79</ele>
        <time>2013-09-02T10:00:45Z</time>
      </trkpt>
      <trkpt lat="43.72473" lon="7.26248">
        <ele>79</ele>
        <time>2013-09-02T10:00:55Z</time>
      </trkpt>
      <trkpt lat="43.72468" lon="7.26238">
        <ele>79</ele>
        <time>2013-09-02T10:01:03Z</time>
      </trkpt>
      <trkpt lat="43.72461" lon="7.26228">
        <ele>79</ele>
        <time>2013-09-02T10:01:11Z</time>
      </trkpt>
      <trkpt lat="43.72457" lon="7.26216">
        <ele>79</ele>
        <time>2013-09-02T10:01:20Z</time>
      </trkpt>
      <trkpt lat="43.72454" lon="7.26204">
        <ele>79</ele>
        <time>2013-09-02T10:01:36Z</time>
      </trkpt>
      <trkpt lat="43.72451" lon="7.26192">
        <ele>79</ele>
        <time>2013-09-02T10:01:43Z</time>
      </trkpt>
      <trkpt lat="43.7245" lon="7.26179">
        <ele>79</ele>
        <time>2013-09-02T10:01:51Z</time>
      </trkpt>
      <trkpt lat="43.72454" lon="7.26167">
        <ele>86</ele>
        <time>2013-09-02T10:02:00Z</time>
      </trkpt>
      <trkpt lat="43.72456" lon="7.26155">
        <ele>93</ele>
        <time>2013-09-02T10:02:09Z</time>
      </trkpt>
      <trkpt lat="43.72451" lon="7.26142">
        <ele>86</ele>
        <time>2013-09-02T10:02:15Z</time>
      </trkpt>
      <trkpt lat="43.72455" lon="7.26131">
        <ele>86</ele>
        <time>2013-09-02T10:02:23Z</time>
      </trkpt>
      <trkpt lat="43.72459" lon="7.26118">
        <ele>86</ele>
        <time>2013-09-02T10:02:33Z</time>
      </trkpt>
      <trkpt lat="43.72465" lon="7.26107">
        <ele>86</ele>
        <time>2013-09-02T10:02:40Z</time>
      </trkpt>
      <trkpt lat="43.7247" lon="7.26098">
        <ele>86</ele>
        <time>2013-09-02T10:02:47Z</time>
      </trkpt>
      <trkpt lat="43.72469" lon="7.26085">
        <ele>86</ele>
        <time>2013-09-02T10:02:53Z</time>
      </trkpt>
      <trkpt lat="43.72469" lon="7.26071">
        <ele>86</ele>
        <time>2013-09-02T10:03:01Z</time>
      </trkpt>
      <trkpt lat="43.72464" lon="7.26059">
        <ele>76</ele>
        <time>2013-09-02T10:03:07Z</time>
      </trkpt>
      <trkpt lat="43.72459" lon="7.26048">
        <ele>76</ele>
        <time>2013-09-02T10:03:13Z</time>
      </trkpt>
      <trkpt lat="43.72455" lon="7.26036">
        <ele>71</ele>
        <time>2013-09-02T10:03:20Z</time>
      </trkpt>
      <trkpt lat="43.7245" lon="7.26025">
        <ele>71</ele>
        <time>2013-09-02T10:03:29Z</time>
      </trkpt>
      <trkpt lat="43.72444" lon="7.26014">
        <ele>71</ele>
        <time>2013-09-02T10:03:36Z</time>
      </trkpt>
      <trkpt lat="43.7244" lon="7.26003">
        <ele>71</ele>
        <time>2013-09-02T10:03:42Z</time>
      </trkpt>
      <trkpt lat="43.72441" lon="7.2599">
        <ele>71</ele>
        <time>2013-09-02T10:03:52Z</time>
      </trkpt>
      <trkpt lat="43.72437" lon="7.25977">
        <ele>71</ele>
        <time>2013-09-02T10:04:01Z</time>
      </trkpt>
      <trkpt lat="43.72429" lon="7.25969">
        <ele>71</ele>
        <time>2013-09-02T10:04:06Z</time>
      </trkpt>
      <trkpt lat="43.72422" lon="7.25963">
        <ele>71</ele>
        <time>2013-09-02T10:04:12Z</time>
      </trkpt>
      <trkpt lat="43.72414" lon="7.25956">
        <ele>71</ele>
        <time>2013-09-02T10:04:25Z</time>
      </trkpt>
      <trkpt lat="43.72411" lon="7.25945">
        <ele>71</ele>
        <time>2013-09-02T10:05:20Z</time>
      </trkpt>
      <trkpt lat="43.72403" lon="7.25952">
        <ele>86</ele>
        <time>2013-09-02T10:05:52Z</time>
      </trkpt>
      <trkpt lat="43.72398" lon="7.25962">
        <ele>86</ele>
        <time>2013-09-02T10:06:09Z</time>
      </trkpt>
      <trkpt lat="43.72392" lon="7.25972">
        <ele>67</ele>
        <time>2013-09-02T10:06:36Z</time>
      </trkpt>
      <trkpt lat="43.72399" lon="7.25963">
        <ele>67</ele>
        <time>2013-09-02T10:11:40Z</time>
      </trkpt>
      <trkpt lat="43.72406" lon="7.25953">
        <ele>81</ele>
        <time>2013-09-02T10:11:58Z</time>
      </trkpt>
      <trkpt lat="43.72416" lon="7.25946">
        <ele>81</ele>
        <time>2013-09-02T10:12:07Z</time>
      </trkpt>
      <trkpt lat="43.72423" lon="7.25938">
        <ele>81</ele>
        <time>2013-09-02T10:12:14Z</time>
      </trkpt>
      <trkpt lat="43.72428" lon="7.25925">
        <ele>81</ele>
        <time>2013-09-02T10:12:25Z</time>
      </trkpt>
      <trkpt lat="43.72433" lon="7.25914">
        <ele>89</ele>
        <time>2013-09-02T10:12:32Z</time>
      </trkpt>
      <trkpt lat="43.72435" lon="7.25901">
        <ele>89</ele>
        <time>2013-09-02T10:12:40Z</time>
      </trkpt>
      <trkpt lat="43.72437" lon="7.25887">
        <ele>89</ele>
        <time>2013-09-02T10:12:48Z</time>
      </trkpt>
      <trkpt lat="43.72437" lon="7.25874">
        <ele>89</ele>
        <time>2013-09-02T10:12:57Z</time>
      </trkpt>
      <trkpt lat="43.72437" lon="7.25861">
        <ele>89</ele>
        <time>2013-09-02T10:13:05Z</time>
      </trkpt>
      <trkpt lat="43.72436" lon="7.25848">
        <ele>89</ele>
        <time>2013-09-02T10:13:16Z</time>
      </trkpt>
      <trkpt lat="43.72437" lon="7.25835">
        <ele>89</ele>
        <time>2013-09-02T10:13:22Z</time>
      </trkpt>
      <trkpt lat="43.72437" lon="7.25823">
        <ele>82</ele>
        <time>2013-09-02T10:13:29Z</time>
      </trkpt>
      <trkpt lat="43.7244" lon="7.25811">
        <ele>82</ele>
        <time>2013-09-02T10:13:38Z</time>
      </trkpt>
      <trkpt lat="43.72446" lon="7.258">
        <ele>82</ele>
        <time>2013-09-02T10:13:46Z</time>
      </trkpt>
      <trkpt lat="43.72449" lon="7.25788">
        <ele>82</ele>
        <time>2013-09-02T10:13:54Z</time>
      </trkpt>
      <trkpt lat="43.72452" lon="7.25776">
        <ele>82</ele>
        <time>2013-09-02T10:14:03Z</time>
      </trkpt>
      <trkpt lat="43.72454" lon="7.25764">
        <ele>82</ele>
        <time>2013-09-02T10:14:10Z</time>
      </trkpt>
      <trkpt lat="43.72459" lon="7.25753">
        <ele>82</ele>
        <time>2013-09-02T10:14:18Z</time>
      </trkpt>
      <trkpt lat="43.72452" lon="7.25746">
        <ele>82</ele>
        <time>2013-09-02T10:14:58Z</time>
      </trkpt>
      <trkpt lat="43.7245" lon="7.25759">
        <ele>82</ele>
        <time>2013-09-02T10:15:37Z</time>
      </trkpt>
      <trkpt lat="43.72446" lon="7.25771">
        <ele>82</ele>
        <time>2013-09-02T10:15:45Z</time>
      </trkpt>
      <trkpt lat="43.72441" lon="7.25781">
        <ele>82</ele>
        <time>2013-09-02T10:15:54Z</time>
      </trkpt>
      <trkpt lat="43.72434" lon="7.25791">
        <ele>82</ele>
        <time>2013-09-02T10:16:02Z</time>
      </trkpt>
      <trkpt lat="43.72427" lon="7.258">
        <ele>82</ele>
        <time>2013-09-02T10:16:08Z</time>
      </trkpt>
      <trkpt lat="43.72426" lon="7.25813">
        <ele>82</ele>
        <time>2013-09-02T10:16:15Z</time>
      </trkpt>
      <trkpt lat="43.72422" lon="7.25825">
        <ele>82</ele>
        <time>2013-09-02T10:16:24Z</time>
      </trkpt>
      <trkpt lat="43.7242" lon="7.25839">
        <ele>82</ele>
        <time>2013-09-02T10:16:33Z</time>
      </trkpt>
      <trkpt lat="43.72422" lon="7.25853">
        <ele>82</ele>
        <time>2013-09-02T10:16:41Z</time>
      </trkpt>
      <trkpt lat="43.72427" lon="7.25863">
        <ele>82</ele>
        <time>2013-09-02T10:16:48Z</time>
      </trkpt>
      <trkpt lat="43.72435" lon="7.25872">
        <ele>72</ele>
        <time>2013-09-02T10:17:05Z</time>
      </trkpt>
      <trkpt lat="43.72427" lon="7.25881">
        <ele>78</ele>
        <time>2013-09-02T10:17:47Z</time>
      </trkpt>
      <trkpt lat="43.72426" lon="7.25894">
        <ele>78</ele>
        <time>2013-09-02T10:17:56Z</time>
      </trkpt>
      <trkpt lat="43.72422" lon="7.25905">
        <ele>78</ele>
        <time>2013-09-02T10:18:02Z</time>
      </trkpt>
      <trkpt lat="43.72426" lon="7.25917">
        <ele>78</ele>
        <time>2013-09-02T10:18:10Z</time>
      </trkpt>
      <trkpt lat="43.72426" lon="7.25931">
        <ele>78</ele>
        <time>2013-09-02T10:18:22Z</time>
      </trkpt>
      <trkpt lat="43.72422" lon="7.25943">
        <ele>83</ele>
        <time>2013-09-02T10:18:31Z</time>
      </trkpt>
      <trkpt lat="43.72414" lon="7.25954">
        <ele>83</ele>
        <time>2013-09-02T10:18:36Z</time>
      </trkpt>
      <trkpt lat="43.72406" lon="7.25963">
        <ele>83</ele>
        <time>2013-09-02T10:18:44Z</time>
      </trkpt>
      <trkpt lat="43.72395" lon="7.25959">
        <ele>83</ele>
        <time>2013-09-02T10:18:59Z</time>
      </trkpt>
      <trkpt lat="43.72387" lon="7.25965">
        <ele>83</ele>
        <time>2013-09-02T10:19:06Z</time>
      </trkpt>
      <trkpt lat="43.72378" lon="7.2597">
        <ele>83</ele>
        <time>2013-09-02T10:19:12Z</time>
      </trkpt>
      <trkpt lat="43.72371" lon="7.25981">
        <ele>83</ele>
        <time>2013-09-02T10:19:23Z</time>
      </trkpt>
      <trkpt lat="43.72362" lon="7.25984">
        <ele>83</ele>
        <time>2013-09-02T10:19:26Z</time>
      </trkpt>
      <trkpt lat="43.72351" lon="7.25987">
        <ele>88</ele>
        <time>2013-09-02T10:19:32Z</time>
      </trkpt>
      <trkpt lat="43.72344" lon="7.25994">
        <ele>80</ele>
        <time>2013-09-02T10:19:42Z</time>
      </trkpt>
      <trkpt lat="43.72336" lon="7.26">
        <ele>80</ele>
        <time>2013-09-02T10:19:53Z</time>
      </trkpt>
      <trkpt lat="43.72326" lon="7.26004">
        <ele>80</ele>
        <time>2013-09-02T10:20:00Z</time>
      </trkpt>
      <trkpt lat="43.72317" lon="7.26011">
        <ele>80</ele>
        <time>2013-09-02T10:20:06Z</time>
      </trkpt>
      <trkpt lat="43.72307" lon="7.26011">
        <ele>73</ele>
        <time>2013-09-02T10:20:13Z</time>
      </trkpt>
      <trkpt lat="43.72298" lon="7.26014">
        <ele>73</ele>
        <time>2013-09-02T10:20:20Z</time>
      </trkpt>
      <trkpt lat="43.72288" lon="7.26018">
        <ele>73</ele>
        <time>2013-09-02T10:20:26Z</time>
      </trkpt>
      <trkpt lat="43.7228" lon="7.26026">
        <ele>73</ele>
        <time>2013-09-02T10:20:34Z</time>
      </trkpt>
      <trkpt lat="43.72271" lon="7.2603">
        <ele>73</ele>
        <time>2013-09-02T10:20:42Z</time>
      </trkpt>
      <trkpt lat="43.72262" lon="7.26035">
        <ele>67</ele>
        <time>2013-09-02T10:20:48Z</time>
      </trkpt>
      <trkpt lat="43.72252" lon="7.26034">
        <ele>67</ele>
        <time>2013-09-02T10:20:54Z</time>
      </trkpt>
      <trkpt lat="43.72242" lon="7.26033">
        <ele>67</ele>
        <time>2013-09-02T10:20:59Z</time>
      </trkpt>
      <trkpt lat="43.72232" lon="7.26036">
        <ele>67</ele>
        <time>2013-09-02T10:21:12Z</time>
      </trkpt>
      <trkpt lat="43.72222" lon="7.26045">
        <ele>67</ele>
        <time>2013-09-02T10:21:20Z</time>
      </trkpt>
      <trkpt lat="43.72213" lon="7.26047">
        <ele>61</ele>
        <time>2013-09-02T10:21:28Z</time>
      </trkpt>
      <trkpt lat="43.72206" lon="7.26057">
        <ele>72</ele>
        <time>2013-09-02T10:21:37Z</time>
      </trkpt>
      <trkpt lat="43.72196" lon="7.26059">
        <ele>72</ele>
        <time>2013-09-02T10:21:46Z</time>
      </trkpt>
      <trkpt lat="43.72176" lon="7.26056">
        <ele>86</ele>
        <time>2013-09-02T10:21:56Z</time>
      </trkpt>
      <trkpt lat="43.72168" lon="7.26062">
        <ele>77</ele>
        <time>2013-09-02T10:22:05Z</time>
      </trkpt>
      <trkpt lat="43.72158" lon="7.26064">
        <ele>77</ele>
        <time>2013-09-02T10:22:13Z</time>
      </trkpt>
      <trkpt lat="43.72149" lon="7.26069">
        <ele>77</ele>
        <time>2013-09-02T10:22:21Z</time>
      </trkpt>
      <trkpt lat="43.7214" lon="7.26073">
        <ele>77</ele>
        <time>2013-09-02T10:22:37Z</time>
      </trkpt>
      <trkpt lat="43.72131" lon="7.26073">
        <ele>77</ele>
        <time>2013-09-02T10:22:42Z</time>
      </trkpt>
      <trkpt lat="43.72121" lon="7.26076">
        <ele>84</ele>
        <time>2013-09-02T10:22:53Z</time>
      </trkpt>
      <trkpt lat="43.72111" lon="7.26079">
        <ele>84</ele>
        <time>2013-09-02T10:22:59Z</time>
      </trkpt>
      <trkpt lat="43.72104" lon="7.26087">
        <ele>90</ele>
        <time>2013-09-02T10:23:07Z</time>
      </trkpt>
      <trkpt lat="43.72099" lon="7.26098">
        <ele>90</ele>
        <time>2013-09-02T10:23:15Z</time>
      </trkpt>
      <trkpt lat="43.72104" lon="7.26108">
        <ele>97</ele>
        <time>2013-09-02T10:23:22Z</time>
      </trkpt>
      <trkpt lat="43.72099" lon="7.26119">
        <ele>97</ele>
        <time>2013-09-02T10:23:34Z</time>
      </trkpt>
      <trkpt lat="43.72092" lon="7.26127">
        <ele>97</ele>
        <time>2013-09-02T10:23:38Z</time>
      </trkpt>
      <trkpt lat="43.72083" lon="7.26133">
        <ele>90</ele>
        <time>2013-09-02T10:23:42Z</time>
      </trkpt>
      <trkpt lat="43.72076" lon="7.2614">
        <ele>69</ele>
        <time>2013-09-02T10:23:50Z</time>
      </trkpt>
      <trkpt lat="43.72071" lon="7.26151">
        <ele>69</ele>
        <time>2013-09-02T10:23:54Z</time>
      </trkpt>
      <trkpt lat="43.72067" lon="7.26166">
        <ele>56</ele>
        <time>2013-09-02T10:24:01Z</time>
      </trkpt>
      <trkpt lat="43.72062" lon="7.26176">
        <ele>56</ele>
        <time>2013-09-02T10:24:05Z</time>
      </trkpt>
      <trkpt lat="43.72055" lon="7.26185">
        <ele>56</ele>
        <time>2013-09-02T10:24:09Z</time>
      </trkpt>
      <trkpt lat="43.72047" lon="7.26193">
        <ele>64</ele>
        <time>2013-09-02T10:24:17Z</time>
      </trkpt>
      <trkpt lat="43.72042" lon="7.26203">
        <ele>64</ele>
        <time>2013-09-02T10:24:22Z</time>
      </trkpt>
      <trkpt lat="43.72037" lon="7.26213">
        <ele>64</ele>
        <time>2013-09-02T10:24:34Z</time>
      </trkpt>
      <trkpt lat="43.72031" lon="7.26224">
        <ele>72</ele>
        <time>2013-09-02T10:24:41Z</time>
      </trkpt>
      <trkpt lat="43.72023" lon="7.26233">
        <ele>72</ele>
        <time>2013-09-02T10:24:47Z</time>
      </trkpt>
      <trkpt lat="43.72026" lon="7.26245">
        <ele>58</ele>
        <time>2013-09-02T10:24:56Z</time>
      </trkpt>
      <trkpt lat="43.72016" lon="7.26243">
        <ele>58</ele>
        <time>2013-09-02T10:25:15Z</time>
      </trkpt>
      <trkpt lat="43.72008" lon="7.26239">
        <ele>51</ele>
        <time>2013-09-02T10:25:22Z</time>
      </trkpt>
      <trkpt lat="43.71997" lon="7.26244">
        <ele>51</ele>
        <time>2013-09-02T10:25:30Z</time>
      </trkpt>
      <trkpt lat="43.71988" lon="7.26246">
        <ele>51</ele>
        <time>2013-09-02T10:25:36Z</time>
      </trkpt>
      <trkpt lat="43.71981" lon="7.26256">
        <ele>58</ele>
        <time>2013-09-02T10:25:44Z</time>
      </trkpt>
      <trkpt lat="43.71974" lon="7.26265">
        <ele>58</ele>
        <time>2013-09-02T10:25:50Z</time>
      </trkpt>
      <trkpt lat="43.71969" lon="7.26275">
        <ele>58</ele>
        <time>2013-09-02T10:26:22Z</time>
      </trkpt>
      <trkpt lat="43.71976" lon="7.26265">
        <ele>58</ele>
        <time>2013-09-02T10:26:29Z</time>
      </trkpt>
      <trkpt lat="43.71977" lon="7.26253">
        <ele>58</ele>
        <time>2013-09-02T10:26:35Z</time>
      </trkpt>
      <trkpt lat="43.71983" lon="7.26239">
        <ele>46</ele>
        <time>2013-09-02T10:26:46Z</time>
      </trkpt>
      <trkpt lat="43.71988" lon="7.26228">
        <ele>46</ele>
        <time>2013-09-02T10:26:52Z</time>
      </trkpt>
      <trkpt lat="43.71986" lon="7.26215">
        <ele>64</ele>
        <time>2013-09-02T10:27:21Z</time>
      </trkpt>
      <trkpt lat="43.71986" lon="7.26203">
        <ele>64</ele>
        <time>2013-09-02T10:27:30Z</time>
      </trkpt>
      <trkpt lat="43.71986" lon="7.2619">
        <ele>64</ele>
        <time>2013-09-02T10:27:41Z</time>
      </trkpt>
      <trkpt lat="43.71983" lon="7.26178">
        <ele>71</ele>
        <time>2013-09-02T10:27:49Z</time>
      </trkpt>
      <trkpt lat="43.71975" lon="7.26169">
        <ele>78</ele>
        <time>2013-09-02T10:27:56Z</time>
      </trkpt>
      <trkpt lat="43.71973" lon="7.26157">
        <ele>78</ele>
        <time>2013-09-02T10:28:05Z</time>
      </trkpt>
      <trkpt lat="43.71972" lon="7.26144">
        <ele>78</ele>
        <time>2013-09-02T10:28:14Z</time>
      </trkpt>
      <trkpt lat="43.71968" lon="7.26132">
        <ele>72</ele>
        <time>2013-09-02T10:28:24Z</time>
      </trkpt>
      <trkpt lat="43.71964" lon="7.2612">
        <ele>72</ele>
        <time>2013-09-02T10:28:31Z</time>
      </trkpt>
      <trkpt lat="43.71961" lon="7.26107">
        <ele>72</ele>
        <time>2013-09-02T10:28:41Z</time>
      </trkpt>
      <trkpt lat="43.71962" lon="7.26095">
        <ele>72</ele>
        <time>2013-09-02T10:28:48Z</time>
      </trkpt>
      <trkpt lat="43.71958" lon="7.26083">
        <ele>78</ele>
        <time>2013-09-02T10:28:54Z</time>
      </trkpt>
      <trkpt lat="43.71954" lon="7.26071">
        <ele>78</ele>
        <time>2013-09-02T10:29:00Z</time>
      </trkpt>
      <trkpt lat="43.71948" lon="7.26062">
        <ele>72</ele>
        <time>2013-09-02T10:29:06Z</time>
      </trkpt>
      <trkpt lat="43.71944" lon="7.26049">
        <ele>65</ele>
        <time>2013-09-02T10:29:18Z</time>
      </trkpt>
      <trkpt lat="43.7194" lon="7.26036">
        <ele>65</ele>
        <time>2013-09-02T10:29:25Z</time>
      </trkpt>
      <trkpt lat="43.71932" lon="7.26028">
        <ele>65</ele>
        <time>2013-09-02T10:29:30Z</time>
      </trkpt>
      <trkpt lat="43.71927" lon="7.26018">
        <ele>65</ele>
        <time>2013-09-02T10:29:38Z</time>
      </trkpt>
      <trkpt lat="43.71925" lon="7.26006">
        <ele>65</ele>
        <time>2013-09-02T10:29:48Z</time>
      </trkpt>
      <trkpt lat="43.71921" lon="7.25995">
        <ele>58</ele>
        <time>2013-09-02T10:29:54Z</time>
      </trkpt>
      <trkpt lat="43.71917" lon="7.25983">
        <ele>58</ele>
        <time>2013-09-02T10:30:00Z</time>
      </trkpt>
      <trkpt lat="43.71913" lon="7.25972">
        <ele>58</ele>
        <time>2013-09-02T10:30:09Z</time>
      </trkpt>
      <trkpt lat="43.71913" lon="7.25958">
        <ele>64</ele>
        <time>2013-09-02T10:30:19Z</time>
      </trkpt>
      <trkpt lat="43.71907" lon="7.25948">
        <ele>64</ele>
        <time>2013-09-02T10:30:27Z</time>
      </trkpt>
      <trkpt lat="43.71907" lon="7.25935">
        <ele>64</ele>
        <time>2013-09-02T10:30:35Z</time>
      </trkpt>
      <trkpt lat="43.71906" lon="7.25921">
        <ele>64</ele>
        <time>2013-09-02T10:30:43Z</time>
      </trkpt>
      <trkpt lat="43.71902" lon="7.2591">
        <ele>70</ele>
        <time>2013-09-02T10:30:53Z</time>
      </trkpt>
      <trkpt lat="43.719" lon="7.25898">
        <ele>70</ele>
        <time>2013-09-02T10:31:01Z</time>
      </trkpt>
      <trkpt lat="43.71895" lon="7.25887">
        <ele>70</ele>
        <time>2013-09-02T10:31:10Z</time>
      </trkpt>
      <trkpt lat="43.71891" lon="7.25876">
        <ele>70</ele>
        <time>2013-09-02T10:31:18Z</time>
      </trkpt>
      <trkpt lat="43.71887" lon="7.25864">
        <ele>70</ele>
        <time>2013-09-02T10:31:26Z</time>
      </trkpt>
      <trkpt lat="43.71883" lon="7.25852">
        <ele>70</ele>
        <time>2013-09-02T10:31:34Z</time>
      </trkpt>
      <trkpt lat="43.71883" lon="7.2584">
        <ele>70</ele>
        <time>2013-09-02T10:31:41Z</time>
      </trkpt>
      <trkpt lat="43.71878" lon="7.25828">
        <ele>65</ele>
        <time>2013-09-02T10:31:50Z</time>
      </trkpt>
      <trkpt lat="43.71875" lon="7.25816">
        <ele>65</ele>
        <time>2013-09-02T10:31:57Z</time>
      </trkpt>
      <trkpt lat="43.7187" lon="7.25806">
        <ele>71</ele>
        <time>2013-09-02T10:32:03Z</time>
      </trkpt>
      <trkpt lat="43.71868" lon="7.25794">
        <ele>71</ele>
        <time>2013-09-02T10:32:12Z</time>
      </trkpt>
      <trkpt lat="43.71868" lon="7.25781">
        <ele>71</ele>
        <time>2013-09-02T10:32:20Z</time>
      </trkpt>
      <trkpt lat="43.71862" lon="7.25771">
        <ele>71</ele>
        <time>2013-09-02T10:32:27Z</time>
      </trkpt>
      <trkpt lat="43.71859" lon="7.25759">
        <ele>71</ele>
        <time>2013-09-02T10:32:36Z</time>
      </trkpt>
      <trkpt lat="43.71855" lon="7.25745">
        <ele>65</ele>
        <time>2013-09-02T10:32:44Z</time>
      </trkpt>
      <trkpt lat="43.71852" lon="7.25734">
        <ele>65</ele>
        <time>2013-09-02T10:32:49Z</time>
      </trkpt>
      <trkpt lat="43.71848" lon="7.25722">
        <ele>65</ele>
        <time>2013-09-02T10:32:55Z</time>
      </trkpt>
      <trkpt lat="43.71842" lon="7.25713">
        <ele>65</ele>
        <time>2013-09-02T10:33:05Z</time>
      </trkpt>
      <trkpt lat="43.71837" lon="7.25702">
        <ele>76</ele>
        <time>2013-09-02T10:33:16Z</time>
      </trkpt>
      <trkpt lat="43.71827" lon="7.25698">
        <ele>83</ele>
        <time>2013-09-02T10:33:24Z</time>
      </trkpt>
      <trkpt lat="43.71818" lon="7.25696">
        <ele>83</ele>
        <time>2013-09-02T10:33:29Z</time>
      </trkpt>
      <trkpt lat="43.7181" lon="7.257">
        <ele>94</ele>
        <time>2013-09-02T10:33:34Z</time>
      </trkpt>
      <trkpt lat="43.71807" lon="7.25688">
        <ele>94</ele>
        <time>2013-09-02T10:33:48Z</time>
      </trkpt>
      <trkpt lat="43.71796" lon="7.25686">
        <ele>89</ele>
        <time>2013-09-02T10:33:53Z</time>
      </trkpt>
      <trkpt lat="43.71786" lon="7.25687">
        <ele>80</ele>
        <time>2013-09-02T10:33:59Z</time>
      </trkpt>
      <trkpt lat="43.71775" lon="7.25688">
        <ele>80</ele>
        <time>2013-09-02T10:34:03Z</time>
      </trkpt>
      <trkpt lat="43.71764" lon="7.25687">
        <ele>67</ele>
        <time>2013-09-02T10:34:06Z</time>
      </trkpt>
      <trkpt lat="43.71754" lon="7.25686">
        <ele>67</ele>
        <time>2013-09-02T10:34:08Z</time>
      </trkpt>
      <trkpt lat="43.71744" lon="7.25685">
        <ele>67</ele>
        <time>2013-09-02T10:34:13Z</time>
      </trkpt>
      <trkpt lat="43.71735" lon="7.25685">
        <ele>67</ele>
        <time>2013-09-02T10:34:17Z</time>
      </trkpt>
      <trkpt lat="43.71726" lon="7.2568">
        <ele>67</ele>
        <time>2013-09-02T10:34:25Z</time>
      </trkpt>
      <trkpt lat="43.71717" lon="7.25678">
        <ele>57</ele>
        <time>2013-09-02T10:34:34Z</time>
      </trkpt>
      <trkpt lat="43.71708" lon="7.25675">
        <ele>57</ele>
        <time>2013-09-02T10:34:39Z</time>
      </trkpt>
      <trkpt lat="43.71699" lon="7.2568">
        <ele>71</ele>
        <time>2013-09-02T10:34:43Z</time>
      </trkpt>
      <trkpt lat="43.7169" lon="7.25687">
        <ele>79</ele>
        <time>2013-09-02T10:34:48Z</time>
      </trkpt>
      <trkpt lat="43.7168" lon="7.2569">
        <ele>87</ele>
        <time>2013-09-02T10:34:53Z</time>
      </trkpt>
      <trkpt lat="43.71672" lon="7.25696">
        <ele>87</ele>
        <time>2013-09-02T10:35:02Z</time>
      </trkpt>
      <trkpt lat="43.71663" lon="7.25701">
        <ele>103</ele>
        <time>2013-09-02T10:35:12Z</time>
      </trkpt>
      <trkpt lat="43.71653" lon="7.25701">
        <ele>97</ele>
        <time>2013-09-02T10:35:19Z</time>
      </trkpt>
      <trkpt lat="43.71646" lon="7.25711">
        <ele>103</ele>
        <time>2013-09-02T10:35:23Z</time>
      </trkpt>
      <trkpt lat="43.71637" lon="7.25717">
        <ele>109</ele>
        <time>2013-09-02T10:35:29Z</time>
      </trkpt>
      <trkpt lat="43.71629" lon="7.25724">
        <ele>101</ele>
        <time>2013-09-02T10:35:41Z</time>
      </trkpt>
      <trkpt lat="43.71623" lon="7.25733">
        <ele>51</ele>
        <time>2013-09-02T10:36:16Z</time>
      </trkpt>
      <trkpt lat="43.71619" lon="7.25721">
        <ele>68</ele>
        <time>2013-09-02T10:36:55Z</time>
      </trkpt>
      <trkpt lat="43.71616" lon="7.25709">
        <ele>68</ele>
        <time>2013-09-02T10:37:04Z</time>
      </trkpt>
      <trkpt lat="43.71613" lon="7.25696">
        <ele>68</ele>
        <time>2013-09-02T10:37:13Z</time>
      </trkpt>
      <trkpt lat="43.71608" lon="7.25685">
        <ele>62</ele>
        <time>2013-09-02T10:37:20Z</time>
      </trkpt>
      <trkpt lat="43.7161" lon="7.25673">
        <ele>62</ele>
        <time>2013-09-02T10:37:28Z</time>
      </trkpt>
      <trkpt lat="43.71609" lon="7.2566">
        <ele>62</ele>
        <time>2013-09-02T10:37:38Z</time>
      </trkpt>
      <trkpt lat="43.71604" lon="7.25649">
        <ele>62</ele>
        <time>2013-09-02T10:37:44Z</time>
      </trkpt>
      <trkpt lat="43.71595" lon="7.25637">
        <ele>62</ele>
        <time>2013-09-02T10:37:53Z</time>
      </trkpt>
      <trkpt lat="43.7159" lon="7.25626">
        <ele>62</ele>
        <time>2013-09-02T10:38:00Z</time>
      </trkpt>
      <trkpt lat="43.71591" lon="7.25612">
        <ele>62</ele>
        <time>2013-09-02T10:38:11Z</time>
      </trkpt>
      <trkpt lat="43.71583" lon="7.25603">
        <ele>62</ele>
        <time>2013-09-02T10:38:17Z</time>
      </trkpt>
      <trkpt lat="43.71575" lon="7.25594">
        <ele>62</ele>
        <time>2013-09-02T10:38:26Z</time>
      </trkpt>
      <trkpt lat="43.71569" lon="7.25581">
        <ele>62</ele>
        <time>2013-09-02T10:38:35Z</time>
      </trkpt>
      <trkpt lat="43.71567" lon="7.25569">
        <ele>62</ele>
        <time>2013-09-02T10:38:39Z</time>
      </trkpt>
      <trkpt lat="43.71562" lon="7.25556">
        <ele>62</ele>
        <time>2013-09-02T10:38:50Z</time>
      </trkpt>
      <trkpt lat="43.71556" lon="7.25542">
        <ele>62</ele>
        <time>2013-09-02T10:38:58Z</time>
      </trkpt>
      <trkpt lat="43.71558" lon="7.2553">
        <ele>62</ele>
        <time>2013-09-02T10:39:08Z</time>
      </trkpt>
      <trkpt lat="43.71556" lon="7.25517">
        <ele>62</ele>
        <time>2013-09-02T10:39:16Z</time>
      </trkpt>
      <trkpt lat="43.71548" lon="7.25509">
        <ele>70</ele>
        <time>2013-09-02T10:39:28Z</time>
      </trkpt>
      <trkpt lat="43.71547" lon="7.25496">
        <ele>64</ele>
        <time>2013-09-02T10:39:33Z</time>
      </trkpt>
      <trkpt lat="43.71539" lon="7.25488">
        <ele>57</ele>
        <time>2013-09-02T10:39:38Z</time>
      </trkpt>
      <trkpt lat="43.71532" lon="7.25477">
        <ele>57</ele>
        <time>2013-09-02T10:39:48Z</time>
      </trkpt>
      <trkpt lat="43.71534" lon="7.25463">
        <ele>57</ele>
        <time>2013-09-02T10:39:58Z</time>
      </trkpt>
      <trkpt lat="43.71531" lon="7.25452">
        <ele>57</ele>
        <time>2013-09-02T10:40:07Z</time>
      </trkpt>
      <trkpt lat="43.71523" lon="7.25447">
        <ele>69</ele>
        <time>2013-09-02T10:40:18Z</time>
      </trkpt>
      <trkpt lat="43.71514" lon="7.25442">
        <ele>69</ele>
        <time>2013-09-02T10:40:25Z</time>
      </trkpt>
      <trkpt lat="43.71506" lon="7.25436">
        <ele>69</ele>
        <time>2013-09-02T10:40:40Z</time>
      </trkpt>
      <trkpt lat="43.71497" lon="7.25432">
        <ele>69</ele>
        <time>2013-09-02T10:40:57Z</time>
      </trkpt>
      <trkpt lat="43.71488" lon="7.25426">
        <ele>63</ele>
        <time>2013-09-02T10:41:04Z</time>
      </trkpt>
      <trkpt lat="43.7148" lon="7.25423">
        <ele>55</ele>
        <time>2013-09-02T10:41:09Z</time>
      </trkpt>
      <trkpt lat="43.7147" lon="7.25418">
        <ele>49</ele>
        <time>2013-09-02T10:41:46Z</time>
      </trkpt>
      <trkpt lat="43.71462" lon="7.25405">
        <ele>49</ele>
        <time>2013-09-02T10:41:53Z</time>
      </trkpt>
    </trkseg>
  </trk>
</gpx>